Observation data for Fort Chadbourne on 01/19/2019      Previous  Date  Next       Current Mesonet Observations  Soil Data  Daily Summary Page  Observations in Plain Language
KCH1 190600Z 33018G24KT 07/00 A2995 RMK A01 T00670003  RH  064%=      5-min Rain = 0
KCH1 190601Z 32020KT 07/00 A2995 RMK A01 T00670003  RH  064%=      5-min Rain = 0
KCH1 190602Z 33017G27KT 07/00 A2995 RMK A01 T00670003  RH  064%=      5-min Rain = 0
KCH1 190603Z 33020G25KT 07/00 A2995 RMK A01 T00670003  RH  063%=      5-min Rain = 0
KCH1 190604Z 33016KT 07/00 A2995 RMK A01 T00670002  RH  063%=      5-min Rain = 0
KCH1 190605Z 33016KT 07/00 A2995 RMK A01 T00670002  RH  063%=      5-min Rain = 0
KCH1 190606Z 33020G25KT 07/00 A2995 RMK A01 T00670002  RH  063%=      5-min Rain = 0
KCH1 190607Z 33021G27KT 07/00 A2995 RMK A01 T00670002  RH  063%=      5-min Rain = 0
KCH1 190608Z 32019G25KT 07/00 A2995 RMK A01 T00670001  RH  063%=      5-min Rain = 0
KCH1 190609Z 33018G27KT 07/00 A2995 RMK A01 T00670000  RH  062%=      5-min Rain = 0
KCH1 190610Z 33017G25KT 07/00 A2995 RMK A01 T006700-0  RH  062%=      5-min Rain = 0
KCH1 190611Z 32020G26KT 07/M00 A2995 RMK A01 T00661001  RH  062%=      5-min Rain = 0
KCH1 190612Z 33025G33KT 07/00 A2996 RMK A01 T006600-0  RH  063%=      5-min Rain = 0
KCH1 190613Z 32023G28KT 07/M00 A2995 RMK A01 T00661001  RH  062%=      5-min Rain = 0
KCH1 190614Z 32021G27KT 07/M00 A2996 RMK A01 T00661001  RH  062%=      5-min Rain = 0
KCH1 190615Z 33016KT 07/M00 A2996 RMK A01 T00661001  RH  062%=      5-min Rain = 0
KCH1 190616Z 32017G27KT 07/00 A2996 RMK A01 T00660000  RH  063%=      5-min Rain = 0
KCH1 190617Z 33021G28KT 07/M00 A2996 RMK A01 T00661001  RH  062%=      5-min Rain = 0
KCH1 190618Z 33021G26KT 07/M00 A2996 RMK A01 T00661002  RH  062%=      5-min Rain = 0
KCH1 190619Z 32019G27KT 07/M00 A2996 RMK A01 T00661002  RH  062%=      5-min Rain = 0
KCH1 190620Z 32020KT 07/M00 A2996 RMK A01 T00661002  RH  062%=      5-min Rain = 0
KCH1 190621Z 32017G23KT 07/M00 A2996 RMK A01 T00661001  RH  062%=      5-min Rain = 0
KCH1 190622Z 32020G30KT 07/M00 A2996 RMK A01 T00661001  RH  062%=      5-min Rain = 0
KCH1 190623Z 33024G32KT 07/M00 A2995 RMK A01 T00651002  RH  062%=      5-min Rain = 0
KCH1 190624Z 34020G29KT 07/M00 A2996 RMK A01 T00651003  RH  062%=      5-min Rain = 0
KCH1 190625Z 34021G27KT 07/M00 A2996 RMK A01 T00651004  RH  062%=      5-min Rain = 0
KCH1 190626Z 33017G23KT 07/M00 A2996 RMK A01 T00651003  RH  062%=      5-min Rain = 0
KCH1 190627Z 33018G26KT 07/M00 A2996 RMK A01 T00651003  RH  062%=      5-min Rain = 0
KCH1 190628Z 33024G32KT 06/M00 A2996 RMK A01 T00641004  RH  062%=      5-min Rain = 0
KCH1 190629Z 32025G34KT 06/M01 A2995 RMK A01 T00641005  RH  061%=      5-min Rain = 0
KCH1 190630Z 32023G29KT 06/M01 A2996 RMK A01 T00641005  RH  061%=      5-min Rain = 0
KCH1 190631Z 33024G31KT 06/M01 A2996 RMK A01 T00641005  RH  061%=      5-min Rain = 0
KCH1 190632Z 33024G34KT 06/M01 A2996 RMK A01 T00641005  RH  061%=      5-min Rain = 0
KCH1 190633Z 33022G30KT 06/M01 A2996 RMK A01 T00641005  RH  061%=      5-min Rain = 0
KCH1 190634Z 35023G29KT 07/M01 A2996 RMK A01 T00651005  RH  061%=      5-min Rain = 0
KCH1 190635Z 34019G24KT 07/M01 A2996 RMK A01 T00651005  RH  061%=      5-min Rain = 0
KCH1 190636Z 33023G33KT 07/M01 A2996 RMK A01 T00651005  RH  061%=      5-min Rain = 0
KCH1 190637Z 34022G32KT 07/M01 A2996 RMK A01 T00651005  RH  061%=      5-min Rain = 0
KCH1 190638Z 33020G26KT 07/M01 A2996 RMK A01 T00651006  RH  061%=      5-min Rain = 0
KCH1 190639Z 34025G30KT 06/M01 A2996 RMK A01 T00641006  RH  061%=      5-min Rain = 0
KCH1 190640Z 34020G28KT 06/M01 A2996 RMK A01 T00641006  RH  061%=      5-min Rain = 0
KCH1 190641Z 34024G32KT 06/M01 A2996 RMK A01 T00641006  RH  061%=      5-min Rain = 0
KCH1 190642Z 33022G29KT 06/M01 A2996 RMK A01 T00641007  RH  061%=      5-min Rain = 0
KCH1 190643Z 33020G26KT 06/M01 A2996 RMK A01 T00641006  RH  061%=      5-min Rain = 0
KCH1 190644Z 35020G27KT 07/M01 A2996 RMK A01 T00651006  RH  061%=      5-min Rain = 0
KCH1 190645Z 33023G31KT 06/M01 A2996 RMK A01 T00641006  RH  061%=      5-min Rain = 0
KCH1 190646Z 33021G26KT 06/M01 A2996 RMK A01 T00641006  RH  061%=      5-min Rain = 0
KCH1 190647Z 33023G35KT 07/M01 A2996 RMK A01 T00651006  RH  061%=      5-min Rain = 0
KCH1 190648Z 33018G24KT 06/M01 A2996 RMK A01 T00641007  RH  060%=      5-min Rain = 0
KCH1 190649Z 33019G24KT 06/M01 A2996 RMK A01 T00641007  RH  060%=      5-min Rain = 0
KCH1 190650Z 33025G35KT 06/M01 A2996 RMK A01 T00641007  RH  060%=      5-min Rain = 0
KCH1 190651Z 32020G26KT 06/M01 A2996 RMK A01 T00631008  RH  060%=      5-min Rain = 0
KCH1 190652Z 33020KT 06/M01 A2996 RMK A01 T00631008  RH  060%=      5-min Rain = 0
KCH1 190653Z 32019G28KT 06/M01 A2997 RMK A01 T00631007  RH  061%=      5-min Rain = 0
KCH1 190654Z 33019G26KT 06/M01 A2997 RMK A01 T00631007  RH  061%=      5-min Rain = 0
KCH1 190655Z 33022KT 06/M01 A2997 RMK A01 T00631008  RH  060%=      5-min Rain = 0
KCH1 190656Z 32023KT 06/M01 A2997 RMK A01 T00631008  RH  060%=      5-min Rain = 0
KCH1 190657Z 33021G36KT 06/M01 A2997 RMK A01 T00631009  RH  060%=      5-min Rain = 0
KCH1 190658Z 34025G31KT 06/M01 A2997 RMK A01 T00631009  RH  060%=      5-min Rain = 0
KCH1 190659Z 33018G26KT 06/M01 A2997 RMK A01 T00621010  RH  060%=      5-min Rain = 0
KCH1 190700Z 33022G31KT 06/M01 A2997 RMK A01 T00621009  RH  060%=      5-min Rain = 0
KCH1 190701Z 32026G36KT 06/M01 A2997 RMK A01 T00621010  RH  060%=      5-min Rain = 0
KCH1 190702Z 32020G25KT 06/M01 A2997 RMK A01 T00621010  RH  060%=      5-min Rain = 0
KCH1 190703Z 32024G34KT 06/M01 A2997 RMK A01 T00621009  RH  060%=      5-min Rain = 0
KCH1 190704Z 33020G31KT 06/M01 A2997 RMK A01 T00621009  RH  060%=      5-min Rain = 0
KCH1 190705Z 33022G27KT 06/M01 A2997 RMK A01 T00621009  RH  060%=      5-min Rain = 0
KCH1 190706Z 33022G28KT 06/M01 A2997 RMK A01 T00621010  RH  060%=      5-min Rain = 0
KCH1 190707Z 33020KT 06/M01 A2997 RMK A01 T00621010  RH  060%=      5-min Rain = 0
KCH1 190708Z 33019G28KT 06/M01 A2998 RMK A01 T00611010  RH  060%=      5-min Rain = 0
KCH1 190709Z 32021G29KT 06/M01 A2997 RMK A01 T00611010  RH  060%=      5-min Rain = 0
KCH1 190710Z 33020G25KT 06/M01 A2998 RMK A01 T00611010  RH  060%=      5-min Rain = 0
KCH1 190711Z 33017KT 06/M01 A2998 RMK A01 T00611010  RH  060%=      5-min Rain = 0
KCH1 190712Z 33021G26KT 06/M01 A2998 RMK A01 T00611010  RH  061%=      5-min Rain = 0
KCH1 190713Z 33017G22KT 06/M01 A2998 RMK A01 T00611010  RH  060%=      5-min Rain = 0
KCH1 190714Z 33020G27KT 06/M01 A2998 RMK A01 T00601010  RH  061%=      5-min Rain = 0
KCH1 190715Z 33018G25KT 06/M01 A2998 RMK A01 T00601011  RH  061%=      5-min Rain = 0
KCH1 190716Z 32021G28KT 06/M01 A2998 RMK A01 T00601010  RH  061%=      5-min Rain = 0
KCH1 190717Z 33020G26KT 06/M01 A2998 RMK A01 T00601010  RH  061%=      5-min Rain = 0
KCH1 190718Z 33018G23KT 06/M01 A2998 RMK A01 T00601010  RH  061%=      5-min Rain = 0
KCH1 190719Z 33014G23KT 06/M01 A2999 RMK A01 T00601010  RH  061%=      5-min Rain = 0
KCH1 190720Z 33016G26KT 06/M01 A2999 RMK A01 T00591009  RH  061%=      5-min Rain = 0
KCH1 190721Z 33014G19KT 06/M01 A2999 RMK A01 T00591010  RH  061%=      5-min Rain = 0
KCH1 190722Z 33014G19KT 06/M01 A2999 RMK A01 T00591009  RH  061%=      5-min Rain = 0
KCH1 190723Z 33016KT 06/M01 A2999 RMK A01 T00591009  RH  061%=      5-min Rain = 0
KCH1 190724Z 33015KT 06/M01 A2999 RMK A01 T00591010  RH  061%=      5-min Rain = 0
KCH1 190725Z 34021G32KT 06/M01 A2999 RMK A01 T00591010  RH  061%=      5-min Rain = 0
KCH1 190726Z 33020G28KT 06/M01 A2999 RMK A01 T00591011  RH  061%=      5-min Rain = 0
KCH1 190727Z 34023G33KT 06/M01 A2999 RMK A01 T00581012  RH  060%=      5-min Rain = 0
KCH1 190728Z 34018G26KT 06/M01 A2999 RMK A01 T00581013  RH  060%=      5-min Rain = 0
KCH1 190729Z 33021G27KT 06/M01 A30 RMK A01 T00581012  RH  061%=      5-min Rain = 0
KCH1 190730Z 33022G28KT 06/M01 A30 RMK A01 T00581012  RH  061%=      5-min Rain = 0
KCH1 190731Z 33015G20KT 06/M01 A30 RMK A01 T00571012  RH  061%=      5-min Rain = 0
KCH1 190732Z 34021G30KT 06/M01 A30 RMK A01 T00581011  RH  061%=      5-min Rain = 0
KCH1 190733Z 33021G30KT 06/M01 A30 RMK A01 T00571012  RH  061%=      5-min Rain = 0
KCH1 190734Z 33024G29KT 06/M01 A30 RMK A01 T00571012  RH  061%=      5-min Rain = 0
KCH1 190735Z 33021G32KT 06/M01 A30 RMK A01 T00571013  RH  061%=      5-min Rain = 0
KCH1 190736Z 34023G32KT 06/M01 A30 RMK A01 T00571012  RH  061%=      5-min Rain = 0
KCH1 190737Z 34023G29KT 06/M01 A30 RMK A01 T00571012  RH  061%=      5-min Rain = 0
KCH1 190738Z 33022G29KT 06/M01 A30 RMK A01 T00561012  RH  061%=      5-min Rain = 0
KCH1 190739Z 33023G33KT 06/M01 A3001 RMK A01 T00561012  RH  062%=      5-min Rain = 0
KCH1 190740Z 34025G33KT 06/M01 A3001 RMK A01 T00561011  RH  062%=      5-min Rain = 0
KCH1 190741Z 33020G26KT 06/M01 A30 RMK A01 T00551011  RH  062%=      5-min Rain = 0
KCH1 190742Z 33022G27KT 06/M01 A3001 RMK A01 T00551010  RH  063%=      5-min Rain = 0
KCH1 190743Z 34019KT 06/M01 A3001 RMK A01 T00551010  RH  063%=      5-min Rain = 0
KCH1 190744Z 34015G22KT 06/M01 A3001 RMK A01 T00551010  RH  063%=      5-min Rain = 0
KCH1 190745Z 34017G22KT 06/M01 A3001 RMK A01 T00551010  RH  063%=      5-min Rain = 0
KCH1 190746Z 34018G23KT 06/M01 A3001 RMK A01 T00551010  RH  063%=      5-min Rain = 0
KCH1 190747Z 34019KT 06/M01 A3001 RMK A01 T00551010  RH  063%=      5-min Rain = 0
KCH1 190748Z 35014G19KT 06/M01 A3001 RMK A01 T00551010  RH  063%=      5-min Rain = 0
KCH1 190749Z 34012KT 05/M01 A3001 RMK A01 T00541010  RH  063%=      5-min Rain = 0
KCH1 190750Z 34013G19KT 05/M01 A3001 RMK A01 T00541010  RH  063%=      5-min Rain = 0
KCH1 190751Z 34014KT 05/M01 A3001 RMK A01 T00541010  RH  063%=      5-min Rain = 0
KCH1 190752Z 34014G19KT 05/M01 A3001 RMK A01 T00541010  RH  063%=      5-min Rain = 0
KCH1 190753Z 34022G28KT 05/M01 A3001 RMK A01 T00541010  RH  063%=      5-min Rain = 0
KCH1 190754Z 33012G18KT 05/M01 A3001 RMK A01 T00541011  RH  063%=      5-min Rain = 0
KCH1 190755Z 34012G17KT 05/M01 A3001 RMK A01 T00541010  RH  063%=      5-min Rain = 0
KCH1 190756Z 34018G26KT 05/M01 A3001 RMK A01 T00541010  RH  063%=      5-min Rain = 0
KCH1 190757Z 34017KT 05/M01 A3001 RMK A01 T00531011  RH  063%=      5-min Rain = 0
KCH1 190758Z 34016G21KT 05/M01 A3001 RMK A01 T00531011  RH  063%=      5-min Rain = 0
KCH1 190759Z 34015G23KT 05/M01 A3001 RMK A01 T00531011  RH  063%=      5-min Rain = 0
KCH1 190800Z 34013G20KT 05/M01 A3002 RMK A01 T00541011  RH  063%=      5-min Rain = 0
KCH1 190801Z 33012G23KT 05/M01 A3002 RMK A01 T00531010  RH  063%=      5-min Rain = 0
KCH1 190802Z 34019KT 05/M01 A3002 RMK A01 T00531011  RH  063%=      5-min Rain = 0
KCH1 190803Z 34021G34KT 05/M01 A3001 RMK A01 T00531012  RH  063%=      5-min Rain = 0
KCH1 190804Z 33017G22KT 05/M01 A3002 RMK A01 T00531012  RH  063%=      5-min Rain = 0
KCH1 190805Z 33017KT 05/M01 A3002 RMK A01 T00531013  RH  063%=      5-min Rain = 0
KCH1 190806Z 33022G29KT 05/M01 A3002 RMK A01 T00521013  RH  063%=      5-min Rain = 0
KCH1 190807Z 34017G24KT 05/M01 A3002 RMK A01 T00521013  RH  063%=      5-min Rain = 0
KCH1 190808Z 34019G24KT 05/M01 A3002 RMK A01 T00521013  RH  063%=      5-min Rain = 0
KCH1 190809Z 35021G34KT 05/M01 A3002 RMK A01 T00521014  RH  063%=      5-min Rain = 0
KCH1 190810Z 35021G28KT 05/M01 A3002 RMK A01 T00521014  RH  063%=      5-min Rain = 0
KCH1 190811Z 34015G22KT 05/M01 A3002 RMK A01 T00521014  RH  063%=      5-min Rain = 0
KCH1 190812Z 35017G34KT 05/M01 A3002 RMK A01 T00521013  RH  063%=      5-min Rain = 0
KCH1 190813Z 34022G32KT 05/M01 A3002 RMK A01 T00521013  RH  063%=      5-min Rain = 0
KCH1 190814Z 34019KT 05/M01 A3002 RMK A01 T00521014  RH  063%=      5-min Rain = 0
KCH1 190815Z 35021G29KT 05/M01 A3002 RMK A01 T00511014  RH  063%=      5-min Rain = 0
KCH1 190816Z 34015G22KT 05/M01 A3003 RMK A01 T00511014  RH  063%=      5-min Rain = 0
KCH1 190817Z 34018G23KT 05/M01 A3002 RMK A01 T00521013  RH  063%=      5-min Rain = 0
KCH1 190818Z 34015G20KT 05/M01 A3003 RMK A01 T00521014  RH  063%=      5-min Rain = 0
KCH1 190819Z 33019G24KT 05/M01 A3003 RMK A01 T00511014  RH  063%=      5-min Rain = 0
KCH1 190820Z 34018G24KT 05/M01 A3003 RMK A01 T00511014  RH  063%=      5-min Rain = 0
KCH1 190821Z 33015G20KT 05/M01 A3003 RMK A01 T00511014  RH  063%=      5-min Rain = 0
KCH1 190822Z 34014G21KT 05/M01 A3003 RMK A01 T00501014  RH  063%=      5-min Rain = 0
KCH1 190823Z 35014G19KT 05/M01 A3003 RMK A01 T00511013  RH  063%=      5-min Rain = 0
KCH1 190824Z 34013KT 05/M01 A3003 RMK A01 T00501013  RH  063%=      5-min Rain = 0
KCH1 190825Z 35015KT 05/M01 A3004 RMK A01 T00501013  RH  063%=      5-min Rain = 0
KCH1 190826Z 35013G18KT 05/M01 A3004 RMK A01 T00501014  RH  063%=      5-min Rain = 0
KCH1 190827Z 35014G20KT 05/M01 A3004 RMK A01 T00501014  RH  064%=      5-min Rain = 0
KCH1 190828Z 34018G26KT 05/M01 A3004 RMK A01 T00501013  RH  064%=      5-min Rain = 0
KCH1 190829Z 34015G21KT 05/M01 A3004 RMK A01 T00501014  RH  064%=      5-min Rain = 0
KCH1 190830Z 34017G23KT 05/M01 A3004 RMK A01 T00491014  RH  064%=      5-min Rain = 0
KCH1 190831Z 34015G20KT 05/M01 A3004 RMK A01 T00491014  RH  064%=      5-min Rain = 0
KCH1 190832Z 34016G22KT 05/M01 A3004 RMK A01 T00491013  RH  064%=      5-min Rain = 0
KCH1 190833Z 35021KT 05/M01 A3004 RMK A01 T00491013  RH  064%=      5-min Rain = 0
KCH1 190834Z 34014G22KT 05/M01 A3004 RMK A01 T00491014  RH  064%=      5-min Rain = 0
KCH1 190835Z 34017G22KT 05/M01 A3004 RMK A01 T00491014  RH  064%=      5-min Rain = 0
KCH1 190836Z 35019G25KT 05/M01 A3005 RMK A01 T00491014  RH  064%=      5-min Rain = 0
KCH1 190837Z 34016G22KT 05/M01 A3005 RMK A01 T00491014  RH  064%=      5-min Rain = 0
KCH1 190838Z 34018G25KT 05/M01 A3005 RMK A01 T00491014  RH  064%=      5-min Rain = 0
KCH1 190839Z 35015G23KT 05/M01 A3005 RMK A01 T00491014  RH  064%=      5-min Rain = 0
KCH1 190840Z 36015G21KT 05/M02 A3005 RMK A01 T00491015  RH  064%=      5-min Rain = 0
KCH1 190841Z 35015G22KT 05/M02 A3005 RMK A01 T00481015  RH  063%=      5-min Rain = 0
KCH1 190842Z 35019G26KT 05/M02 A3005 RMK A01 T00481016  RH  063%=      5-min Rain = 0
KCH1 190843Z 34014G19KT 05/M02 A3005 RMK A01 T00481016  RH  063%=      5-min Rain = 0
KCH1 190844Z 34017G24KT 05/M02 A3005 RMK A01 T00481016  RH  063%=      5-min Rain = 0
KCH1 190845Z 35019G25KT 05/M02 A3005 RMK A01 T00481016  RH  063%=      5-min Rain = 0
KCH1 190846Z 35016G22KT 05/M02 A3005 RMK A01 T00481016  RH  063%=      5-min Rain = 0
KCH1 190847Z 35019KT 05/M02 A3005 RMK A01 T00481016  RH  063%=      5-min Rain = 0
KCH1 190848Z 35014KT 05/M02 A3006 RMK A01 T00481016  RH  063%=      5-min Rain = 0
KCH1 190849Z 34011KT 05/M02 A3006 RMK A01 T00481016  RH  063%=      5-min Rain = 0
KCH1 190850Z 35016G24KT 05/M02 A3006 RMK A01 T00481015  RH  064%=      5-min Rain = 0
KCH1 190851Z 35015KT 05/M02 A3006 RMK A01 T00481016  RH  063%=      5-min Rain = 0
KCH1 190852Z 34014G19KT 05/M02 A3006 RMK A01 T00481016  RH  063%=      5-min Rain = 0
KCH1 190853Z 35014G19KT 05/M02 A3006 RMK A01 T00481016  RH  063%=      5-min Rain = 0
KCH1 190854Z 35012KT 05/M02 A3006 RMK A01 T00481016  RH  063%=      5-min Rain = 0
KCH1 190855Z 35016G24KT 05/M02 A3006 RMK A01 T00471016  RH  064%=      5-min Rain = 0
KCH1 190856Z 34019G28KT 05/M02 A3006 RMK A01 T00471016  RH  064%=      5-min Rain = 0
KCH1 190857Z 34018G26KT 05/M02 A3006 RMK A01 T00471017  RH  063%=      5-min Rain = 0
KCH1 190858Z 34020G30KT 05/M02 A3006 RMK A01 T00461017  RH  063%=      5-min Rain = 0
KCH1 190859Z 35018G27KT 05/M02 A3006 RMK A01 T00461018  RH  063%=      5-min Rain = 0
KCH1 190900Z 34023G32KT 05/M02 A3006 RMK A01 T00461018  RH  063%=      5-min Rain = 0
KCH1 190901Z 34021G28KT 05/M02 A3006 RMK A01 T00451019  RH  063%=      5-min Rain = 0
KCH1 190902Z 34024G33KT 05/M02 A3006 RMK A01 T00451019  RH  063%=      5-min Rain = 0
KCH1 190903Z 34017G28KT 05/M02 A3007 RMK A01 T00451019  RH  063%=      5-min Rain = 0
KCH1 190904Z 35020G28KT 04/M02 A3007 RMK A01 T00441019  RH  063%=      5-min Rain = 0
KCH1 190905Z 35016G21KT 04/M02 A3007 RMK A01 T00441018  RH  064%=      5-min Rain = 0
KCH1 190906Z 34017G22KT 04/M02 A3007 RMK A01 T00441018  RH  064%=      5-min Rain = 0
KCH1 190907Z 34014G19KT 04/M02 A3007 RMK A01 T00441018  RH  064%=      5-min Rain = 0
KCH1 190908Z 34014G20KT 04/M02 A3007 RMK A01 T00431018  RH  064%=      5-min Rain = 0
KCH1 190909Z 35013G19KT 04/M02 A3007 RMK A01 T00431018  RH  064%=      5-min Rain = 0
KCH1 190910Z 35018G25KT 04/M02 A3007 RMK A01 T00431018  RH  064%=      5-min Rain = 0
KCH1 190911Z 34016G25KT 04/M02 A3007 RMK A01 T00431018  RH  065%=      5-min Rain = 0
KCH1 190912Z 35019G24KT 04/M02 A3007 RMK A01 T00421018  RH  065%=      5-min Rain = 0
KCH1 190913Z 34022G27KT 04/M02 A3007 RMK A01 T00421019  RH  065%=      5-min Rain = 0
KCH1 190914Z 34015G20KT 04/M02 A3007 RMK A01 T00421019  RH  065%=      5-min Rain = 0
KCH1 190915Z 34014G19KT 04/M02 A3008 RMK A01 T00411018  RH  065%=      5-min Rain = 0
KCH1 190916Z 34017G23KT 04/M02 A3008 RMK A01 T00411018  RH  065%=      5-min Rain = 0
KCH1 190917Z 34015G22KT 04/M02 A3008 RMK A01 T00411018  RH  065%=      5-min Rain = 0
KCH1 190918Z 33022G30KT 04/M02 A3007 RMK A01 T00411017  RH  066%=      5-min Rain = 0
KCH1 190919Z 34020G25KT 04/M02 A3007 RMK A01 T00411017  RH  066%=      5-min Rain = 0
KCH1 190920Z 34020G26KT 04/M02 A3008 RMK A01 T00401016  RH  067%=      5-min Rain = 0
KCH1 190921Z 34021G28KT 04/M02 A3008 RMK A01 T00391016  RH  067%=      5-min Rain = 0
KCH1 190922Z 34019G24KT 04/M02 A3008 RMK A01 T00391015  RH  068%=      5-min Rain = 0
KCH1 190923Z 33019G24KT 04/M02 A3008 RMK A01 T00381015  RH  068%=      5-min Rain = 0
KCH1 190924Z 35018G24KT 04/M01 A3008 RMK A01 T00381014  RH  069%=      5-min Rain = 0
KCH1 190925Z 34016G22KT 04/M01 A3008 RMK A01 T00381014  RH  069%=      5-min Rain = 0
KCH1 190926Z 34013G20KT 04/M01 A3008 RMK A01 T00381013  RH  069%=      5-min Rain = 0
KCH1 190927Z 33014G22KT 04/M01 A3008 RMK A01 T00371013  RH  070%=      5-min Rain = 0
KCH1 190928Z 33017G22KT 04/M01 A3008 RMK A01 T00371012  RH  070%=      5-min Rain = 0
KCH1 190929Z 35020G26KT 04/M01 A3008 RMK A01 T00371012  RH  070%=      5-min Rain = 0
KCH1 190930Z 34021G26KT 04/M01 A3008 RMK A01 T00361012  RH  071%=      5-min Rain = 0
KCH1 190931Z 34017KT 04/M01 A3008 RMK A01 T00361011  RH  071%=      5-min Rain = 0
KCH1 190932Z 34012KT 04/M01 A3008 RMK A01 T00361011  RH  071%=      5-min Rain = 0
KCH1 190933Z 34013KT 04/M01 A3009 RMK A01 T00361010  RH  072%=      5-min Rain = 0
KCH1 190934Z 33020G25KT 04/M01 A3008 RMK A01 T00361010  RH  072%=      5-min Rain = 0
KCH1 190935Z 33018G23KT 04/M01 A3009 RMK A01 T00361010  RH  072%=      5-min Rain = 0
KCH1 190936Z 34017G22KT 04/M01 A3009 RMK A01 T00361010  RH  072%=      5-min Rain = 0
KCH1 190937Z 34015KT 04/M01 A3009 RMK A01 T00351010  RH  072%=      5-min Rain = 0
KCH1 190938Z 33021G27KT 04/M01 A3009 RMK A01 T00351009  RH  072%=      5-min Rain = 0
KCH1 190939Z 33021G27KT 04/M01 A3009 RMK A01 T00351010  RH  072%=      5-min Rain = 0
KCH1 190940Z 33016G24KT 03/M01 A3009 RMK A01 T00341010  RH  073%=      5-min Rain = 0
KCH1 190941Z 33018G26KT 03/M01 A3009 RMK A01 T00341010  RH  073%=      5-min Rain = 0
KCH1 190942Z 34019G29KT 03/M01 A3009 RMK A01 T00331010  RH  073%=      5-min Rain = 0
KCH1 190943Z 34013G19KT 03/M01 A3009 RMK A01 T00331010  RH  073%=      5-min Rain = 0
KCH1 190944Z 35014G20KT 03/M01 A3009 RMK A01 T00321010  RH  074%=      5-min Rain = 0
KCH1 190945Z 35018KT 03/M01 A3009 RMK A01 T00321010  RH  074%=      5-min Rain = 0
KCH1 190946Z 35017G23KT 03/M01 A3009 RMK A01 T00311011  RH  074%=      5-min Rain = 0
KCH1 190947Z 35020G26KT 03/M01 A3009 RMK A01 T00311012  RH  073%=      5-min Rain = 0
KCH1 190948Z 35014G20KT 03/M01 A3009 RMK A01 T00311013  RH  073%=      5-min Rain = 0
KCH1 190949Z 34012G19KT 03/M01 A3009 RMK A01 T00301012  RH  074%=      5-min Rain = 0
KCH1 190950Z 34016G21KT 03/M01 A3009 RMK A01 T00291012  RH  074%=      5-min Rain = 0
KCH1 190951Z 34015G22KT 03/M01 A3009 RMK A01 T00291012  RH  074%=      5-min Rain = 0
KCH1 190952Z 34015G20KT 03/M01 A3009 RMK A01 T00291012  RH  075%=      5-min Rain = 0
KCH1 190953Z 34015KT 03/M01 A3009 RMK A01 T00291011  RH  075%=      5-min Rain = 0
KCH1 190954Z 34011G18KT 03/M01 A3009 RMK A01 T00281011  RH  075%=      5-min Rain = 0
KCH1 190955Z 34013G21KT 03/M01 A3009 RMK A01 T00281011  RH  075%=      5-min Rain = 0
KCH1 190956Z 33017G23KT 03/M01 A3009 RMK A01 T00281011  RH  076%=      5-min Rain = 0
KCH1 190957Z 33015G25KT 03/M01 A3009 RMK A01 T00281010  RH  076%=      5-min Rain = 0
KCH1 190958Z 34015G20KT 03/M01 A301 RMK A01 T00281010  RH  076%=      5-min Rain = 0
KCH1 190959Z 34013G19KT 03/M01 A301 RMK A01 T00281010  RH  076%=      5-min Rain = 0
KCH1 191000Z 34019G25KT 03/M01 A301 RMK A01 T00281010  RH  076%=      5-min Rain = 0
KCH1 191001Z 33020G25KT 03/M01 A301 RMK A01 T00271011  RH  076%=      5-min Rain = 0
KCH1 191002Z 34013KT 03/M01 A301 RMK A01 T00271011  RH  076%=      5-min Rain = 0
KCH1 191003Z 35013KT 03/M01 A301 RMK A01 T00271010  RH  076%=      5-min Rain = 0
KCH1 191004Z 34013G18KT 03/M01 A301 RMK A01 T00271010  RH  076%=      5-min Rain = 0
KCH1 191005Z 33017KT 03/M01 A301 RMK A01 T00271010  RH  077%=      5-min Rain = 0
KCH1 191006Z 33017G25KT 03/M01 A301 RMK A01 T00261010  RH  077%=      5-min Rain = 0
KCH1 191007Z 33020G27KT 03/M01 A301 RMK A01 T00261011  RH  077%=      5-min Rain = 0
KCH1 191008Z 34014G19KT 03/M01 A301 RMK A01 T00271011  RH  076%=      5-min Rain = 0
KCH1 191009Z 34012G19KT 03/M01 A3011 RMK A01 T00271010  RH  076%=      5-min Rain = 0
KCH1 191010Z 33015KT 03/M01 A3011 RMK A01 T00271010  RH  077%=      5-min Rain = 0
KCH1 191011Z 34012G17KT 03/M01 A3011 RMK A01 T00261010  RH  077%=      5-min Rain = 0
KCH1 191012Z 33008G13KT 03/M01 A3011 RMK A01 T00261010  RH  077%=      5-min Rain = 0
KCH1 191013Z 33013KT 03/M01 A3011 RMK A01 T00261010  RH  077%=      5-min Rain = 0
KCH1 191014Z 34011G18KT 03/M01 A3011 RMK A01 T00251010  RH  077%=      5-min Rain = 0
KCH1 191015Z 34012G18KT 03/M01 A3011 RMK A01 T00251010  RH  077%=      5-min Rain = 0
KCH1 191016Z 33009KT 03/M01 A3011 RMK A01 T00251010  RH  077%=      5-min Rain = 0
KCH1 191017Z 33010KT 03/M01 A3011 RMK A01 T00251010  RH  077%=      5-min Rain = 0
KCH1 191018Z 33012KT 03/M01 A3011 RMK A01 T00251010  RH  077%=      5-min Rain = 0
KCH1 191019Z 33011KT 03/M01 A3011 RMK A01 T00251010  RH  077%=      5-min Rain = 0
KCH1 191020Z 33012KT 03/M01 A3011 RMK A01 T00251010  RH  077%=      5-min Rain = 0
KCH1 191021Z 33014KT 03/M01 A3011 RMK A01 T00261010  RH  077%=      5-min Rain = 0
KCH1 191022Z 33014KT 03/M01 A3011 RMK A01 T00261011  RH  077%=      5-min Rain = 0
KCH1 191023Z 33010KT 03/M01 A3011 RMK A01 T00261011  RH  077%=      5-min Rain = 0
KCH1 191024Z 33011KT 03/M01 A3012 RMK A01 T00261010  RH  077%=      5-min Rain = 0
KCH1 191025Z 33011KT 03/M01 A3012 RMK A01 T00261010  RH  077%=      5-min Rain = 0
KCH1 191026Z 33013KT 03/M01 A3012 RMK A01 T00261010  RH  077%=      5-min Rain = 0
KCH1 191027Z 33013KT 03/M01 A3012 RMK A01 T00261010  RH  077%=      5-min Rain = 0
KCH1 191028Z 33012G17KT 03/M01 A3012 RMK A01 T00261010  RH  077%=      5-min Rain = 0
KCH1 191029Z 33010KT 03/M01 A3012 RMK A01 T00261010  RH  077%=      5-min Rain = 0
KCH1 191030Z 32012KT 03/M01 A3012 RMK A01 T00261010  RH  077%=      5-min Rain = 0
KCH1 191031Z 32010KT 03/M01 A3012 RMK A01 T00271010  RH  077%=      5-min Rain = 0
KCH1 191032Z 33014KT 03/M01 A3012 RMK A01 T00261010  RH  077%=      5-min Rain = 0
KCH1 191033Z 33012G17KT 03/M01 A3012 RMK A01 T00271010  RH  077%=      5-min Rain = 0
KCH1 191034Z 33011G17KT 03/M01 A3012 RMK A01 T00261010  RH  077%=      5-min Rain = 0
KCH1 191035Z 33011G17KT 03/M01 A3012 RMK A01 T00261010  RH  077%=      5-min Rain = 0
KCH1 191036Z 32010KT 03/M01 A3012 RMK A01 T00261010  RH  077%=      5-min Rain = 0
KCH1 191037Z 33012G18KT 03/M01 A3012 RMK A01 T00261010  RH  077%=      5-min Rain = 0
KCH1 191038Z 33013G18KT 03/M01 A3012 RMK A01 T00271011  RH  076%=      5-min Rain = 0
KCH1 191039Z 32011KT 03/M01 A3012 RMK A01 T00271011  RH  076%=      5-min Rain = 0
KCH1 191040Z 33015KT 03/M01 A3012 RMK A01 T00271011  RH  076%=      5-min Rain = 0
KCH1 191041Z 34014KT 03/M01 A3012 RMK A01 T00271011  RH  076%=      5-min Rain = 0
KCH1 191042Z 33011KT 03/M01 A3012 RMK A01 T00271011  RH  076%=      5-min Rain = 0
KCH1 191043Z 33011KT 03/M01 A3012 RMK A01 T00271011  RH  076%=      5-min Rain = 0
KCH1 191044Z 33012G18KT 03/M01 A3012 RMK A01 T00271011  RH  076%=      5-min Rain = 0
KCH1 191045Z 33012G17KT 03/M01 A3012 RMK A01 T00281011  RH  076%=      5-min Rain = 0
KCH1 191046Z 33013G19KT 03/M01 A3012 RMK A01 T00281011  RH  076%=      5-min Rain = 0
KCH1 191047Z 33012G18KT 03/M01 A3012 RMK A01 T00281011  RH  076%=      5-min Rain = 0
KCH1 191048Z 34013KT 03/M01 A3013 RMK A01 T00281011  RH  075%=      5-min Rain = 0
KCH1 191049Z 34010KT 03/M01 A3013 RMK A01 T00281011  RH  075%=      5-min Rain = 0
KCH1 191050Z 34011KT 03/M01 A3013 RMK A01 T00281011  RH  075%=      5-min Rain = 0
KCH1 191051Z 34014G20KT 03/M01 A3013 RMK A01 T00281011  RH  076%=      5-min Rain = 0
KCH1 191052Z 33013G19KT 03/M01 A3013 RMK A01 T00281011  RH  075%=      5-min Rain = 0
KCH1 191053Z 34012G18KT 03/M01 A3013 RMK A01 T00291011  RH  075%=      5-min Rain = 0
KCH1 191054Z 33014KT 03/M01 A3013 RMK A01 T00291011  RH  075%=      5-min Rain = 0
KCH1 191055Z 33017KT 03/M01 A3013 RMK A01 T00301011  RH  075%=      5-min Rain = 0
KCH1 191056Z 33016KT 03/M01 A3013 RMK A01 T00301011  RH  074%=      5-min Rain = 0
KCH1 191057Z 33017KT 03/M01 A3012 RMK A01 T00311011  RH  074%=      5-min Rain = 0
KCH1 191058Z 33011G20KT 03/M01 A3013 RMK A01 T00311011  RH  074%=      5-min Rain = 0
KCH1 191059Z 33010KT 03/M01 A3013 RMK A01 T00311012  RH  074%=      5-min Rain = 0
KCH1 191100Z 33015KT 03/M01 A3013 RMK A01 T00311011  RH  074%=      5-min Rain = 0
KCH1 191101Z 33012KT 03/M01 A3013 RMK A01 T00311011  RH  074%=      5-min Rain = 0
KCH1 191102Z 33011KT 03/M01 A3013 RMK A01 T00311011  RH  074%=      5-min Rain = 0
KCH1 191103Z 33009KT 03/M01 A3013 RMK A01 T00311010  RH  074%=      5-min Rain = 0
KCH1 191104Z 33013KT 03/M01 A3013 RMK A01 T00311010  RH  074%=      5-min Rain = 0
KCH1 191105Z 33014KT 03/M01 A3013 RMK A01 T00321010  RH  074%=      5-min Rain = 0
KCH1 191106Z 33012KT 03/M01 A3013 RMK A01 T00321010  RH  074%=      5-min Rain = 0
KCH1 191107Z 34013G18KT 03/M01 A3013 RMK A01 T00331010  RH  074%=      5-min Rain = 0
KCH1 191108Z 34012KT 03/M01 A3013 RMK A01 T00331010  RH  074%=      5-min Rain = 0
KCH1 191109Z 33010KT 03/M01 A3013 RMK A01 T00331009  RH  073%=      5-min Rain = 0
KCH1 191110Z 34010G17KT 03/M01 A3013 RMK A01 T00331009  RH  074%=      5-min Rain = 0
KCH1 191111Z 34013KT 03/M01 A3013 RMK A01 T00331009  RH  074%=      5-min Rain = 0
KCH1 191112Z 34013KT 03/M01 A3013 RMK A01 T00341009  RH  073%=      5-min Rain = 0
KCH1 191113Z 33010KT 03/M01 A3013 RMK A01 T00341009  RH  073%=      5-min Rain = 0
KCH1 191114Z 34013KT 03/M01 A3013 RMK A01 T00341009  RH  073%=      5-min Rain = 0
KCH1 191115Z 33009KT 03/M01 A3013 RMK A01 T00341009  RH  073%=      5-min Rain = 0
KCH1 191116Z 33009KT 03/M01 A3013 RMK A01 T00341009  RH  074%=      5-min Rain = 0
KCH1 191117Z 32013KT 03/M01 A3013 RMK A01 T00341008  RH  074%=      5-min Rain = 0
KCH1 191118Z 33009KT 03/M01 A3013 RMK A01 T00341008  RH  074%=      5-min Rain = 0
KCH1 191119Z 33011G16KT 03/M01 A3013 RMK A01 T00341007  RH  074%=      5-min Rain = 0
KCH1 191120Z 33013KT 03/M01 A3013 RMK A01 T00341008  RH  074%=      5-min Rain = 0
KCH1 191121Z 33011KT 03/M01 A3013 RMK A01 T00341008  RH  074%=      5-min Rain = 0
KCH1 191122Z 33008KT 03/M01 A3013 RMK A01 T00341008  RH  074%=      5-min Rain = 0
KCH1 191123Z 33009KT 03/M01 A3013 RMK A01 T00341008  RH  074%=      5-min Rain = 0
KCH1 191124Z 33012KT 03/M01 A3013 RMK A01 T00341007  RH  074%=      5-min Rain = 0
KCH1 191125Z 33014KT 03/M01 A3013 RMK A01 T00341007  RH  074%=      5-min Rain = 0
KCH1 191126Z 33013KT 03/M01 A3013 RMK A01 T00341007  RH  074%=      5-min Rain = 0
KCH1 191127Z 32011G16KT 04/M01 A3013 RMK A01 T00351007  RH  074%=      5-min Rain = 0
KCH1 191128Z 33011KT 04/M01 A3013 RMK A01 T00351007  RH  074%=      5-min Rain = 0
KCH1 191129Z 33011KT 04/M01 A3013 RMK A01 T00351007  RH  074%=      5-min Rain = 0
KCH1 191130Z 33011KT 04/M01 A3013 RMK A01 T00351007  RH  074%=      5-min Rain = 0
KCH1 191131Z 32009KT 04/M01 A3013 RMK A01 T00351007  RH  074%=      5-min Rain = 0
KCH1 191132Z 34009KT 04/M01 A3013 RMK A01 T00361006  RH  074%=      5-min Rain = 0
KCH1 191133Z 34009KT 04/M01 A3014 RMK A01 T00361006  RH  074%=      5-min Rain = 0
KCH1 191134Z 33009KT 04/M01 A3014 RMK A01 T00361005  RH  074%=      5-min Rain = 0
KCH1 191135Z 33008KT 04/M01 A3014 RMK A01 T00351006  RH  074%=      5-min Rain = 0
KCH1 191136Z 33007KT 04/M01 A3014 RMK A01 T00361005  RH  074%=      5-min Rain = 0
KCH1 191137Z 33007KT 04/M01 A3014 RMK A01 T00361005  RH  075%=      5-min Rain = 0
KCH1 191138Z 34006KT 04/M01 A3014 RMK A01 T00361005  RH  075%=      5-min Rain = 0
KCH1 191139Z 33007KT 04/M01 A3014 RMK A01 T00361005  RH  075%=      5-min Rain = 0
KCH1 191140Z 33009KT 04/M01 A3014 RMK A01 T00361005  RH  075%=      5-min Rain = 0
KCH1 191141Z 34007KT 04/M01 A3014 RMK A01 T00361005  RH  075%=      5-min Rain = 0
KCH1 191142Z 33010KT 04/M01 A3014 RMK A01 T00361005  RH  075%=      5-min Rain = 0
KCH1 191143Z 33010KT 04/M01 A3014 RMK A01 T00351005  RH  075%=      5-min Rain = 0
KCH1 191144Z 33008KT 04/M01 A3014 RMK A01 T00361005  RH  075%=      5-min Rain = 0
KCH1 191145Z 33011KT 04/M01 A3014 RMK A01 T00361005  RH  075%=      5-min Rain = 0
KCH1 191146Z 34008KT 04/M01 A3014 RMK A01 T00351005  RH  075%=      5-min Rain = 0
KCH1 191147Z 33010KT 04/M01 A3014 RMK A01 T00361005  RH  075%=      5-min Rain = 0
KCH1 191148Z 32009KT 04/M01 A3014 RMK A01 T00361005  RH  075%=      5-min Rain = 0
KCH1 191149Z 32010G16KT 04/M01 A3014 RMK A01 T00351005  RH  075%=      5-min Rain = 0
KCH1 191150Z 32012KT 04/M01 A3014 RMK A01 T00351005  RH  075%=      5-min Rain = 0
KCH1 191151Z 33011KT 04/M01 A3014 RMK A01 T00351005  RH  075%=      5-min Rain = 0
KCH1 191152Z 33011KT 04/M01 A3015 RMK A01 T00361005  RH  075%=      5-min Rain = 0
KCH1 191153Z 33009KT 04/M01 A3015 RMK A01 T00351005  RH  075%=      5-min Rain = 0
KCH1 191154Z 32009KT 04/M00 A3015 RMK A01 T00361004  RH  075%=      5-min Rain = 0
KCH1 191155Z 32010KT 04/M00 A3015 RMK A01 T00361004  RH  075%=      5-min Rain = 0
KCH1 191156Z 32009KT 04/M00 A3015 RMK A01 T00351004  RH  075%=      5-min Rain = 0
KCH1 191157Z 32010KT 04/M00 A3015 RMK A01 T00351004  RH  076%=      5-min Rain = 0
KCH1 191158Z 33010KT 04/M00 A3015 RMK A01 T00361004  RH  075%=      5-min Rain = 0
KCH1 191159Z 32009KT 04/M00 A3015 RMK A01 T00361004  RH  075%=      5-min Rain = 0
KCH1 191200Z 32008KT 04/M00 A3015 RMK A01 T00351004  RH  076%=      5-min Rain = 0
KCH1 191201Z 32007KT 04/M00 A3015 RMK A01 T00351004  RH  076%=      5-min Rain = 0
KCH1 191202Z 33010KT 04/M00 A3015 RMK A01 T00351004  RH  076%=      5-min Rain = 0
KCH1 191203Z 33011KT 04/M00 A3015 RMK A01 T00351004  RH  076%=      5-min Rain = 0
KCH1 191204Z 33012KT 04/M00 A3015 RMK A01 T00351004  RH  076%=      5-min Rain = 0
KCH1 191205Z 33011KT 04/M00 A3015 RMK A01 T00351004  RH  076%=      5-min Rain = 0
KCH1 191206Z 32010KT 04/M00 A3015 RMK A01 T00351004  RH  076%=      5-min Rain = 0
KCH1 191207Z 32009KT 04/M00 A3015 RMK A01 T00351004  RH  076%=      5-min Rain = 0
KCH1 191208Z 33008KT 04/M00 A3016 RMK A01 T00351004  RH  076%=      5-min Rain = 0
KCH1 191209Z 32011KT 04/M00 A3016 RMK A01 T00351003  RH  076%=      5-min Rain = 0
KCH1 191210Z 33010G15KT 04/M00 A3016 RMK A01 T00351004  RH  076%=      5-min Rain = 0
KCH1 191211Z 32010G15KT 04/M00 A3016 RMK A01 T00351004  RH  076%=      5-min Rain = 0
KCH1 191212Z 32013KT 04/M00 A3016 RMK A01 T00351004  RH  076%=      5-min Rain = 0
KCH1 191213Z 33011G16KT 04/M01 A3016 RMK A01 T00351005  RH  075%=      5-min Rain = 0
KCH1 191214Z 33009KT 04/M01 A3016 RMK A01 T00351006  RH  075%=      5-min Rain = 0
KCH1 191215Z 32007KT 04/M01 A3016 RMK A01 T00351005  RH  075%=      5-min Rain = 0
KCH1 191216Z 32012G17KT 03/M01 A3016 RMK A01 T00341006  RH  075%=      5-min Rain = 0
KCH1 191217Z 32013KT 03/M01 A3016 RMK A01 T00341007  RH  074%=      5-min Rain = 0
KCH1 191218Z 33009G16KT 04/M01 A3016 RMK A01 T00351008  RH  074%=      5-min Rain = 0
KCH1 191219Z 33013G20KT 04/M01 A3016 RMK A01 T00351008  RH  073%=      5-min Rain = 0
KCH1 191220Z 33010KT 04/M01 A3016 RMK A01 T00351008  RH  073%=      5-min Rain = 0
KCH1 191221Z 33010KT 03/M01 A3016 RMK A01 T00341009  RH  074%=      5-min Rain = 0
KCH1 191222Z 33012KT 03/M01 A3016 RMK A01 T00341009  RH  074%=      5-min Rain = 0
KCH1 191223Z 34014KT 03/M01 A3016 RMK A01 T00341010  RH  073%=      5-min Rain = 0
KCH1 191224Z 34011G16KT 03/M01 A3016 RMK A01 T00341010  RH  073%=      5-min Rain = 0
KCH1 191225Z 33015KT 03/M01 A3016 RMK A01 T00341010  RH  073%=      5-min Rain = 0
KCH1 191226Z 35016G23KT 03/M01 A3016 RMK A01 T00341010  RH  073%=      5-min Rain = 0
KCH1 191227Z 35018G23KT 03/M01 A3016 RMK A01 T00331011  RH  072%=      5-min Rain = 0
KCH1 191228Z 34010KT 03/M01 A3016 RMK A01 T00341012  RH  072%=      5-min Rain = 0
KCH1 191229Z 34013KT 03/M01 A3016 RMK A01 T00331012  RH  072%=      5-min Rain = 0
KCH1 191230Z 35019G26KT 03/M01 A3016 RMK A01 T00331013  RH  072%=      5-min Rain = 0
KCH1 191231Z 34017G22KT 03/M01 A3016 RMK A01 T00331014  RH  071%=      5-min Rain = 0
KCH1 191232Z 34014KT 03/M01 A3016 RMK A01 T00331014  RH  071%=      5-min Rain = 0
KCH1 191233Z 34014G20KT 03/M01 A3017 RMK A01 T00331014  RH  072%=      5-min Rain = 0
KCH1 191234Z 34012G17KT 03/M01 A3017 RMK A01 T00321014  RH  072%=      5-min Rain = 0
KCH1 191235Z 33011KT 03/M01 A3017 RMK A01 T00321014  RH  072%=      5-min Rain = 0
KCH1 191236Z 34012KT 03/M01 A3017 RMK A01 T00311014  RH  072%=      5-min Rain = 0
KCH1 191237Z 33015KT 03/M01 A3017 RMK A01 T00311014  RH  072%=      5-min Rain = 0
KCH1 191238Z 34017G26KT 03/M02 A3017 RMK A01 T00311015  RH  072%=      5-min Rain = 0
KCH1 191239Z 33014KT 03/M02 A3017 RMK A01 T00301016  RH  072%=      5-min Rain = 0
KCH1 191240Z 34013G18KT 03/M02 A3017 RMK A01 T00311016  RH  072%=      5-min Rain = 0
KCH1 191241Z 34015KT 03/M02 A3017 RMK A01 T00301016  RH  072%=      5-min Rain = 0
KCH1 191242Z 33014G21KT 03/M02 A3017 RMK A01 T00301016  RH  072%=      5-min Rain = 0
KCH1 191243Z 33014KT 03/M02 A3017 RMK A01 T00301016  RH  072%=      5-min Rain = 0
KCH1 191244Z 33015KT 03/M02 A3017 RMK A01 T00291017  RH  072%=      5-min Rain = 0
KCH1 191245Z 32012KT 03/M02 A3017 RMK A01 T00291017  RH  072%=      5-min Rain = 0
KCH1 191246Z 33015KT 03/M02 A3017 RMK A01 T00291017  RH  072%=      5-min Rain = 0
KCH1 191247Z 33012G21KT 03/M02 A3017 RMK A01 T00281017  RH  072%=      5-min Rain = 0
KCH1 191248Z 34013G18KT 03/M02 A3017 RMK A01 T00281017  RH  072%=      5-min Rain = 0
KCH1 191249Z 33012G19KT 03/M02 A3017 RMK A01 T00281018  RH  072%=      5-min Rain = 0
KCH1 191250Z 33014G19KT 03/M02 A3018 RMK A01 T00271018  RH  072%=      5-min Rain = 0
KCH1 191251Z 33010KT 03/M02 A3018 RMK A01 T00271018  RH  072%=      5-min Rain = 0
KCH1 191252Z 33010KT 03/M02 A3018 RMK A01 T00271019  RH  072%=      5-min Rain = 0
KCH1 191253Z 33014G19KT 03/M02 A3018 RMK A01 T00261019  RH  072%=      5-min Rain = 0
KCH1 191254Z 34014G19KT 03/M02 A3018 RMK A01 T00261019  RH  072%=      5-min Rain = 0
KCH1 191255Z 34014KT 03/M02 A3018 RMK A01 T00261020  RH  072%=      5-min Rain = 0
KCH1 191256Z 34013KT 03/M02 A3018 RMK A01 T00261020  RH  072%=      5-min Rain = 0
KCH1 191257Z 33011KT 03/M02 A3018 RMK A01 T00261020  RH  072%=      5-min Rain = 0
KCH1 191258Z 33011KT 03/M02 A3018 RMK A01 T00251021  RH  072%=      5-min Rain = 0
KCH1 191259Z 34010KT 03/M02 A3019 RMK A01 T00251021  RH  072%=      5-min Rain = 0
KCH1 191300Z 32015KT 02/M02 A3019 RMK A01 T00241021  RH  072%=      5-min Rain = 0
KCH1 191301Z 33016G22KT 02/M02 A3019 RMK A01 T00241021  RH  072%=      5-min Rain = 0
KCH1 191302Z 34012G17KT 02/M02 A3019 RMK A01 T00241021  RH  072%=      5-min Rain = 0
KCH1 191303Z 33010KT 02/M02 A3019 RMK A01 T00241021  RH  072%=      5-min Rain = 0
KCH1 191304Z 33015KT 02/M02 A3019 RMK A01 T00241022  RH  072%=      5-min Rain = 0
KCH1 191305Z 34012G17KT 02/M02 A3019 RMK A01 T00241022  RH  072%=      5-min Rain = 0
KCH1 191306Z 33011G16KT 02/M02 A3019 RMK A01 T00231022  RH  072%=      5-min Rain = 0
KCH1 191307Z 33014KT 02/M02 A302 RMK A01 T00231023  RH  072%=      5-min Rain = 0
KCH1 191308Z 33014KT 02/M02 A302 RMK A01 T00231023  RH  072%=      5-min Rain = 0
KCH1 191309Z 33012KT 02/M02 A302 RMK A01 T00231023  RH  072%=      5-min Rain = 0
KCH1 191310Z 33014KT 02/M02 A302 RMK A01 T00221023  RH  072%=      5-min Rain = 0
KCH1 191311Z 33013KT 02/M02 A302 RMK A01 T00221024  RH  072%=      5-min Rain = 0
KCH1 191312Z 34015KT 02/M02 A302 RMK A01 T00221024  RH  071%=      5-min Rain = 0
KCH1 191313Z 33013KT 02/M03 A302 RMK A01 T00221025  RH  071%=      5-min Rain = 0
KCH1 191314Z 34014KT 02/M02 A302 RMK A01 T00221024  RH  071%=      5-min Rain = 0
KCH1 191315Z 34014G19KT 02/M03 A302 RMK A01 T00221025  RH  071%=      5-min Rain = 0
KCH1 191316Z 34013G18KT 02/M03 A302 RMK A01 T00221025  RH  071%=      5-min Rain = 0
KCH1 191317Z 34010G18KT 02/M03 A302 RMK A01 T00221025  RH  071%=      5-min Rain = 0
KCH1 191318Z 34015G20KT 02/M03 A302 RMK A01 T00211026  RH  071%=      5-min Rain = 0
KCH1 191319Z 34012G19KT 02/M03 A302 RMK A01 T00211027  RH  071%=      5-min Rain = 0
KCH1 191320Z 34015KT 02/M03 A302 RMK A01 T00211028  RH  070%=      5-min Rain = 0
KCH1 191321Z 34011KT 02/M03 A302 RMK A01 T00211028  RH  070%=      5-min Rain = 0
KCH1 191322Z 34012G17KT 02/M03 A302 RMK A01 T00211029  RH  069%=      5-min Rain = 0
KCH1 191323Z 35012KT 02/M03 A302 RMK A01 T00211029  RH  069%=      5-min Rain = 0
KCH1 191324Z 34010KT 02/M03 A302 RMK A01 T00211030  RH  069%=      5-min Rain = 0
KCH1 191325Z 33011KT 02/M03 A302 RMK A01 T00211030  RH  069%=      5-min Rain = 0
KCH1 191326Z 34012G19KT 02/M03 A3021 RMK A01 T00211031  RH  069%=      5-min Rain = 0
KCH1 191327Z 34011KT 02/M03 A3021 RMK A01 T00211031  RH  068%=      5-min Rain = 0
KCH1 191328Z 34008KT 02/M03 A3021 RMK A01 T00201032  RH  068%=      5-min Rain = 0
KCH1 191329Z 34011KT 02/M03 A3021 RMK A01 T00201032  RH  069%=      5-min Rain = 0
KCH1 191330Z 34011KT 02/M03 A3021 RMK A01 T00201033  RH  068%=      5-min Rain = 0
KCH1 191331Z 34010KT 02/M03 A3021 RMK A01 T00201033  RH  068%=      5-min Rain = 0
KCH1 191332Z 34008KT 02/M03 A3021 RMK A01 T00201033  RH  068%=      5-min Rain = 0
KCH1 191333Z 34009KT 02/M03 A3021 RMK A01 T00191034  RH  068%=      5-min Rain = 0
KCH1 191334Z 34009KT 02/M03 A3021 RMK A01 T00191034  RH  068%=      5-min Rain = 0
KCH1 191335Z 33011G16KT 02/M03 A3021 RMK A01 T00191034  RH  068%=      5-min Rain = 0
KCH1 191336Z 34012KT 02/M03 A3021 RMK A01 T00191034  RH  068%=      5-min Rain = 0
KCH1 191337Z 34010KT 02/M03 A3021 RMK A01 T00191034  RH  068%=      5-min Rain = 0
KCH1 191338Z 34009KT 02/M03 A3021 RMK A01 T00191034  RH  068%=      5-min Rain = 0
KCH1 191339Z 34009KT 02/M03 A3021 RMK A01 T00191034  RH  068%=      5-min Rain = 0
KCH1 191340Z 33009KT 02/M03 A3021 RMK A01 T00181034  RH  068%=      5-min Rain = 0
KCH1 191341Z 33009KT 02/M03 A3021 RMK A01 T00181034  RH  069%=      5-min Rain = 0
KCH1 191342Z 33011KT 02/M03 A3021 RMK A01 T00181034  RH  069%=      5-min Rain = 0
KCH1 191343Z 33009KT 02/M03 A3022 RMK A01 T00181034  RH  069%=      5-min Rain = 0
KCH1 191344Z 33011KT 02/M03 A3022 RMK A01 T00181033  RH  069%=      5-min Rain = 0
KCH1 191345Z 33010G16KT 02/M03 A3021 RMK A01 T00171033  RH  069%=      5-min Rain = 0
KCH1 191346Z 32010KT 02/M03 A3022 RMK A01 T00171033  RH  069%=      5-min Rain = 0
KCH1 191347Z 33012G17KT 02/M03 A3022 RMK A01 T00171033  RH  070%=      5-min Rain = 0
KCH1 191348Z 33013KT 02/M03 A3022 RMK A01 T00171033  RH  070%=      5-min Rain = 0
KCH1 191349Z 33009KT 02/M03 A3022 RMK A01 T00171033  RH  069%=      5-min Rain = 0
KCH1 191350Z 33012G17KT 02/M03 A3022 RMK A01 T00181032  RH  070%=      5-min Rain = 0
KCH1 191351Z 33015KT 02/M03 A3022 RMK A01 T00181032  RH  069%=      5-min Rain = 0
KCH1 191352Z 33015KT 02/M03 A3022 RMK A01 T00181033  RH  069%=      5-min Rain = 0
KCH1 191353Z 33014KT 02/M03 A3022 RMK A01 T00181033  RH  069%=      5-min Rain = 0
KCH1 191354Z 34014G19KT 02/M03 A3022 RMK A01 T00181033  RH  069%=      5-min Rain = 0
KCH1 191355Z 33014KT 02/M03 A3022 RMK A01 T00181033  RH  069%=      5-min Rain = 0
KCH1 191356Z 34015KT 02/M03 A3022 RMK A01 T00181033  RH  069%=      5-min Rain = 0
KCH1 191357Z 33013KT 02/M03 A3022 RMK A01 T00181033  RH  069%=      5-min Rain = 0
KCH1 191358Z 33014G20KT 02/M03 A3022 RMK A01 T00181033  RH  069%=      5-min Rain = 0
KCH1 191359Z 33013KT 02/M03 A3022 RMK A01 T00181033  RH  069%=      5-min Rain = 0
KCH1 191400Z 33016G22KT 02/M03 A3022 RMK A01 T00181033  RH  069%=      5-min Rain = 0
KCH1 191401Z 33015G21KT 02/M03 A3022 RMK A01 T00181034  RH  068%=      5-min Rain = 0
KCH1 191402Z 32013KT 02/M04 A3022 RMK A01 T00181035  RH  068%=      5-min Rain = 0
KCH1 191403Z 33012KT 02/M03 A3022 RMK A01 T00191034  RH  068%=      5-min Rain = 0
KCH1 191404Z 33012KT 02/M03 A3022 RMK A01 T00191034  RH  068%=      5-min Rain = 0
KCH1 191405Z 33013G18KT 02/M03 A3022 RMK A01 T00191034  RH  068%=      5-min Rain = 0
KCH1 191406Z 33015G20KT 02/M04 A3022 RMK A01 T00191035  RH  068%=      5-min Rain = 0
KCH1 191407Z 33014KT 02/M04 A3022 RMK A01 T00191036  RH  067%=      5-min Rain = 0
KCH1 191408Z 33011G17KT 02/M04 A3022 RMK A01 T00191036  RH  067%=      5-min Rain = 0
KCH1 191409Z 34013G19KT 02/M04 A3023 RMK A01 T00191036  RH  067%=      5-min Rain = 0
KCH1 191410Z 33014KT 02/M04 A3023 RMK A01 T00191036  RH  067%=      5-min Rain = 0
KCH1 191411Z 33012G18KT 02/M04 A3023 RMK A01 T00191036  RH  067%=      5-min Rain = 0
KCH1 191412Z 33012KT 02/M04 A3023 RMK A01 T00191036  RH  067%=      5-min Rain = 0
KCH1 191413Z 33012G19KT 02/M04 A3023 RMK A01 T00191036  RH  067%=      5-min Rain = 0
KCH1 191414Z 33015KT 02/M04 A3023 RMK A01 T00191037  RH  067%=      5-min Rain = 0
KCH1 191415Z 33011KT 02/M04 A3023 RMK A01 T00191037  RH  066%=      5-min Rain = 0
KCH1 191416Z 33010KT 02/M04 A3023 RMK A01 T00201036  RH  066%=      5-min Rain = 0
KCH1 191417Z 33016G21KT 02/M04 A3023 RMK A01 T00201036  RH  066%=      5-min Rain = 0
KCH1 191418Z 33015KT 02/M04 A3023 RMK A01 T00201038  RH  066%=      5-min Rain = 0
KCH1 191419Z 33016KT 02/M04 A3023 RMK A01 T00201039  RH  065%=      5-min Rain = 0
KCH1 191420Z 33014KT 02/M04 A3023 RMK A01 T00201039  RH  065%=      5-min Rain = 0
KCH1 191421Z 33016G23KT 02/M04 A3023 RMK A01 T00201039  RH  065%=      5-min Rain = 0
KCH1 191422Z 34011KT 02/M04 A3024 RMK A01 T00201039  RH  065%=      5-min Rain = 0
KCH1 191423Z 33010G15KT 02/M04 A3024 RMK A01 T00211039  RH  065%=      5-min Rain = 0
KCH1 191424Z 34013KT 02/M04 A3024 RMK A01 T00211038  RH  065%=      5-min Rain = 0
KCH1 191425Z 33016KT 02/M04 A3024 RMK A01 T00211038  RH  065%=      5-min Rain = 0
KCH1 191426Z 33013KT 02/M04 A3024 RMK A01 T00211039  RH  065%=      5-min Rain = 0
KCH1 191427Z 33011G16KT 02/M04 A3024 RMK A01 T00211038  RH  065%=      5-min Rain = 0
KCH1 191428Z 34013KT 02/M04 A3024 RMK A01 T00211038  RH  065%=      5-min Rain = 0
KCH1 191429Z 32014KT 02/M04 A3024 RMK A01 T00211037  RH  065%=      5-min Rain = 0
KCH1 191430Z 34013G19KT 02/M04 A3024 RMK A01 T00211038  RH  065%=      5-min Rain = 0
KCH1 191431Z 34012G17KT 02/M04 A3024 RMK A01 T00221038  RH  065%=      5-min Rain = 0
KCH1 191432Z 33014G21KT 02/M04 A3024 RMK A01 T00221038  RH  064%=      5-min Rain = 0
KCH1 191433Z 33018G23KT 02/M04 A3025 RMK A01 T00221040  RH  064%=      5-min Rain = 0
KCH1 191434Z 34016KT 02/M04 A3024 RMK A01 T00221041  RH  063%=      5-min Rain = 0
KCH1 191435Z 34015KT 02/M04 A3025 RMK A01 T00231040  RH  063%=      5-min Rain = 0
KCH1 191436Z 34015G20KT 02/M04 A3025 RMK A01 T00231041  RH  063%=      5-min Rain = 0
KCH1 191437Z 33014KT 02/M04 A3025 RMK A01 T00231040  RH  063%=      5-min Rain = 0
KCH1 191438Z 33018G24KT 02/M04 A3025 RMK A01 T00231041  RH  062%=      5-min Rain = 0
KCH1 191439Z 34016G21KT 02/M04 A3025 RMK A01 T00241043  RH  061%=      5-min Rain = 0
KCH1 191440Z 33013KT 02/M04 A3025 RMK A01 T00241043  RH  061%=      5-min Rain = 0
KCH1 191441Z 34013KT 02/M04 A3025 RMK A01 T00241043  RH  061%=      5-min Rain = 0
KCH1 191442Z 35018KT 03/M04 A3025 RMK A01 T00251043  RH  061%=      5-min Rain = 0
KCH1 191443Z 34013KT 03/M04 A3025 RMK A01 T00251044  RH  061%=      5-min Rain = 0
KCH1 191444Z 35012G18KT 03/M04 A3025 RMK A01 T00251043  RH  061%=      5-min Rain = 0
KCH1 191445Z 34012KT 03/M04 A3025 RMK A01 T00251043  RH  061%=      5-min Rain = 0
KCH1 191446Z 32012G17KT 03/M04 A3025 RMK A01 T00261042  RH  061%=      5-min Rain = 0
KCH1 191447Z 33015KT 03/M04 A3025 RMK A01 T00261042  RH  061%=      5-min Rain = 0
KCH1 191448Z 33015KT 03/M04 A3025 RMK A01 T00271042  RH  061%=      5-min Rain = 0
KCH1 191449Z 34014KT 03/M04 A3026 RMK A01 T00261043  RH  060%=      5-min Rain = 0
KCH1 191450Z 34014KT 03/M04 A3026 RMK A01 T00261043  RH  060%=      5-min Rain = 0
KCH1 191451Z 34017G22KT 03/M04 A3026 RMK A01 T00271043  RH  060%=      5-min Rain = 0
KCH1 191452Z 34016KT 03/M04 A3026 RMK A01 T00261044  RH  060%=      5-min Rain = 0
KCH1 191453Z 33016G21KT 03/M04 A3026 RMK A01 T00271044  RH  060%=      5-min Rain = 0
KCH1 191454Z 34017KT 03/M04 A3026 RMK A01 T00271044  RH  060%=      5-min Rain = 0
KCH1 191455Z 34014KT 03/M04 A3026 RMK A01 T00271043  RH  060%=      5-min Rain = 0
KCH1 191456Z 34015G21KT 03/M04 A3026 RMK A01 T00281043  RH  060%=      5-min Rain = 0
KCH1 191457Z 34014KT 03/M04 A3026 RMK A01 T00281044  RH  059%=      5-min Rain = 0
KCH1 191458Z 34013KT 03/M04 A3026 RMK A01 T00281044  RH  059%=      5-min Rain = 0
KCH1 191459Z 33012KT 03/M04 A3026 RMK A01 T00291044  RH  059%=      5-min Rain = 0
KCH1 191500Z 33011KT 03/M04 A3026 RMK A01 T00291043  RH  059%=      5-min Rain = 0
KCH1 191501Z 33016KT 03/M04 A3026 RMK A01 T00301043  RH  059%=      5-min Rain = 0
KCH1 191502Z 35012KT 03/M04 A3026 RMK A01 T00301043  RH  059%=      5-min Rain = 0
KCH1 191503Z 34011G16KT 03/M04 A3026 RMK A01 T00301043  RH  058%=      5-min Rain = 0
KCH1 191504Z 34014KT 03/M04 A3026 RMK A01 T00311044  RH  058%=      5-min Rain = 0
KCH1 191505Z 33009KT 03/M04 A3027 RMK A01 T00311044  RH  058%=      5-min Rain = 0
KCH1 191506Z 33012KT 03/M04 A3026 RMK A01 T00311042  RH  058%=      5-min Rain = 0
KCH1 191507Z 34010KT 03/M04 A3027 RMK A01 T00321042  RH  058%=      5-min Rain = 0
KCH1 191508Z 34016KT 03/M04 A3026 RMK A01 T00321043  RH  058%=      5-min Rain = 0
KCH1 191509Z 34013G21KT 03/M04 A3027 RMK A01 T00331044  RH  057%=      5-min Rain = 0
KCH1 191510Z 33014G19KT 03/M04 A3027 RMK A01 T00321043  RH  058%=      5-min Rain = 0
KCH1 191511Z 34012KT 03/M04 A3027 RMK A01 T00321044  RH  057%=      5-min Rain = 0
KCH1 191512Z 34011KT 03/M04 A3027 RMK A01 T00331043  RH  057%=      5-min Rain = 0
KCH1 191513Z 33015KT 03/M04 A3027 RMK A01 T00341042  RH  057%=      5-min Rain = 0
KCH1 191514Z 33016KT 03/M04 A3027 RMK A01 T00341043  RH  057%=      5-min Rain = 0
KCH1 191515Z 33014G21KT 03/M04 A3027 RMK A01 T00331043  RH  057%=      5-min Rain = 0
KCH1 191516Z 33017KT 03/M04 A3027 RMK A01 T00331043  RH  057%=      5-min Rain = 0
KCH1 191517Z 32016KT 03/M04 A3027 RMK A01 T00331044  RH  057%=      5-min Rain = 0
KCH1 191518Z 34016G22KT 03/M04 A3027 RMK A01 T00331043  RH  057%=      5-min Rain = 0
KCH1 191519Z 33017G23KT 03/M05 A3027 RMK A01 T00341045  RH  056%=      5-min Rain = 0
KCH1 191520Z 34014G19KT 03/M04 A3027 RMK A01 T00341044  RH  057%=      5-min Rain = 0
KCH1 191521Z 34014KT 03/M04 A3027 RMK A01 T00341043  RH  057%=      5-min Rain = 0
KCH1 191522Z 34015KT 04/M04 A3027 RMK A01 T00351043  RH  057%=      5-min Rain = 0
KCH1 191523Z 34019KT 04/M04 A3027 RMK A01 T00351043  RH  057%=      5-min Rain = 0
KCH1 191524Z 35014G21KT 04/M04 A3028 RMK A01 T00351044  RH  056%=      5-min Rain = 0
KCH1 191525Z 33011G16KT 04/M04 A3028 RMK A01 T00351042  RH  057%=      5-min Rain = 0
KCH1 191526Z 33008KT 04/M04 A3028 RMK A01 T00361040  RH  057%=      5-min Rain = 0
KCH1 191527Z 32012G18KT 04/M04 A3028 RMK A01 T00381039  RH  058%=      5-min Rain = 0
KCH1 191528Z 33015G20KT 04/M04 A3028 RMK A01 T00391039  RH  057%=      5-min Rain = 0
KCH1 191529Z 33016G21KT 04/M04 A3028 RMK A01 T00391039  RH  057%=      5-min Rain = 0
KCH1 191530Z 33017KT 04/M04 A3028 RMK A01 T00381041  RH  057%=      5-min Rain = 0
KCH1 191531Z 33015KT 04/M04 A3028 RMK A01 T00361041  RH  057%=      5-min Rain = 0
KCH1 191532Z 34012G20KT 04/M04 A3028 RMK A01 T00371039  RH  057%=      5-min Rain = 0
KCH1 191533Z 34014G20KT 04/M04 A3028 RMK A01 T00381038  RH  057%=      5-min Rain = 0
KCH1 191534Z 34011G18KT 04/M04 A3028 RMK A01 T00391038  RH  057%=      5-min Rain = 0
KCH1 191535Z 35012G17KT 04/M04 A3028 RMK A01 T00391038  RH  057%=      5-min Rain = 0
KCH1 191536Z 33016G22KT 04/M04 A3028 RMK A01 T00401037  RH  057%=      5-min Rain = 0
KCH1 191537Z 33018KT 04/M04 A3028 RMK A01 T00411038  RH  056%=      5-min Rain = 0
KCH1 191538Z 33016KT 04/M04 A3028 RMK A01 T00401040  RH  056%=      5-min Rain = 0
KCH1 191539Z 32017G22KT 04/M04 A3028 RMK A01 T00391040  RH  056%=      5-min Rain = 0
KCH1 191540Z 34016G21KT 04/M04 A3028 RMK A01 T00391040  RH  056%=      5-min Rain = 0
KCH1 191541Z 34015G20KT 04/M04 A3028 RMK A01 T00401039  RH  057%=      5-min Rain = 0
KCH1 191542Z 32015G21KT 04/M04 A3028 RMK A01 T00401039  RH  057%=      5-min Rain = 0
KCH1 191543Z 33013G18KT 04/M04 A3028 RMK A01 T00411038  RH  057%=      5-min Rain = 0
KCH1 191544Z 32016G21KT 04/M04 A3028 RMK A01 T00421038  RH  056%=      5-min Rain = 0
KCH1 191545Z 33015KT 04/M04 A3028 RMK A01 T00421039  RH  056%=      5-min Rain = 0
KCH1 191546Z 33014KT 04/M04 A3029 RMK A01 T00411038  RH  056%=      5-min Rain = 0
KCH1 191547Z 34015KT 04/M04 A3029 RMK A01 T00421038  RH  056%=      5-min Rain = 0
KCH1 191548Z 33013G18KT 04/M04 A3029 RMK A01 T00431037  RH  056%=      5-min Rain = 0
KCH1 191549Z 32014KT 04/M04 A3029 RMK A01 T00441037  RH  056%=      5-min Rain = 0
KCH1 191550Z 33013KT 04/M04 A3029 RMK A01 T00441037  RH  055%=      5-min Rain = 0
KCH1 191551Z 34011G16KT 04/M04 A3029 RMK A01 T00441037  RH  055%=      5-min Rain = 0
KCH1 191552Z 32012KT 05/M04 A3029 RMK A01 T00451037  RH  055%=      5-min Rain = 0
KCH1 191553Z 32015G21KT 05/M04 A3029 RMK A01 T00461036  RH  055%=      5-min Rain = 0
KCH1 191554Z 32013G20KT 05/M04 A3029 RMK A01 T00461036  RH  055%=      5-min Rain = 0
KCH1 191555Z 32016G26KT 05/M04 A3029 RMK A01 T00461036  RH  055%=      5-min Rain = 0
KCH1 191556Z 33018G23KT 05/M04 A3029 RMK A01 T00461038  RH  055%=      5-min Rain = 0
KCH1 191557Z 34018G24KT 05/M04 A3029 RMK A01 T00451039  RH  054%=      5-min Rain = 0
KCH1 191558Z 33016G22KT 05/M04 A303 RMK A01 T00451040  RH  054%=      5-min Rain = 0
KCH1 191559Z 34016KT 05/M04 A303 RMK A01 T00451039  RH  055%=      5-min Rain = 0
KCH1 191600Z 34015G22KT 05/M04 A303 RMK A01 T00451039  RH  055%=      5-min Rain = 0
KCH1 191601Z 34019G25KT 05/M04 A303 RMK A01 T00451039  RH  054%=      5-min Rain = 0
KCH1 191602Z 34017G22KT 05/M04 A303 RMK A01 T00451040  RH  054%=      5-min Rain = 0
KCH1 191603Z 34016KT 05/M04 A303 RMK A01 T00451038  RH  055%=      5-min Rain = 0
KCH1 191604Z 35019KT 05/M04 A303 RMK A01 T00461039  RH  054%=      5-min Rain = 0
KCH1 191605Z 35017G24KT 05/M04 A303 RMK A01 T00471040  RH  053%=      5-min Rain = 0
KCH1 191606Z 34021KT 05/M04 A303 RMK A01 T00461041  RH  053%=      5-min Rain = 0
KCH1 191607Z 34016G21KT 05/M04 A303 RMK A01 T00461041  RH  053%=      5-min Rain = 0
KCH1 191608Z 34014KT 05/M04 A303 RMK A01 T00461039  RH  054%=      5-min Rain = 0
KCH1 191609Z 34017G23KT 05/M04 A303 RMK A01 T00481039  RH  054%=      5-min Rain = 0
KCH1 191610Z 33018G24KT 05/M04 A303 RMK A01 T00481040  RH  053%=      5-min Rain = 0
KCH1 191611Z 33015G20KT 05/M04 A303 RMK A01 T00481040  RH  053%=      5-min Rain = 0
KCH1 191612Z 33017G23KT 05/M04 A303 RMK A01 T00481040  RH  053%=      5-min Rain = 0
KCH1 191613Z 33013G18KT 05/M04 A303 RMK A01 T00491040  RH  053%=      5-min Rain = 0
KCH1 191614Z 33016G21KT 05/M04 A303 RMK A01 T00501038  RH  053%=      5-min Rain = 0
KCH1 191615Z 34018KT 05/M04 A303 RMK A01 T00511039  RH  052%=      5-min Rain = 0
KCH1 191616Z 34018G25KT 05/M04 A3031 RMK A01 T00501042  RH  052%=      5-min Rain = 0
KCH1 191617Z 34019G26KT 05/M04 A3031 RMK A01 T00501041  RH  052%=      5-min Rain = 0
KCH1 191618Z 34020G27KT 05/M04 A303 RMK A01 T00491043  RH  051%=      5-min Rain = 0
KCH1 191619Z 33017G24KT 05/M04 A3031 RMK A01 T00491043  RH  051%=      5-min Rain = 0
KCH1 191620Z 33016G21KT 05/M04 A3031 RMK A01 T00491042  RH  052%=      5-min Rain = 0
KCH1 191621Z 33019G24KT 05/M04 A303 RMK A01 T00501043  RH  051%=      5-min Rain = 0
KCH1 191622Z 32017G24KT 05/M04 A303 RMK A01 T00501043  RH  051%=      5-min Rain = 0
KCH1 191623Z 33015KT 05/M04 A3031 RMK A01 T00511042  RH  051%=      5-min Rain = 0
KCH1 191624Z 33018KT 05/M04 A3031 RMK A01 T00521041  RH  051%=      5-min Rain = 0
KCH1 191625Z 34017G22KT 05/M04 A3031 RMK A01 T00521042  RH  051%=      5-min Rain = 0
KCH1 191626Z 35015G23KT 05/M04 A3031 RMK A01 T00521040  RH  051%=      5-min Rain = 0
KCH1 191627Z 35017G22KT 05/M04 A3031 RMK A01 T00541040  RH  051%=      5-min Rain = 0
KCH1 191628Z 34015G21KT 05/M04 A3031 RMK A01 T00531042  RH  050%=      5-min Rain = 0
KCH1 191629Z 35013KT 05/M04 A3031 RMK A01 T00541040  RH  051%=      5-min Rain = 0
KCH1 191630Z 35014KT 06/M04 A3031 RMK A01 T00551040  RH  051%=      5-min Rain = 0
KCH1 191631Z 34014G19KT 06/M04 A3031 RMK A01 T00571039  RH  050%=      5-min Rain = 0
KCH1 191632Z 33017G23KT 06/M04 A3031 RMK A01 T00571040  RH  050%=      5-min Rain = 0
KCH1 191633Z 33020G25KT 06/M04 A3031 RMK A01 T00561041  RH  050%=      5-min Rain = 0
KCH1 191634Z 33021G30KT 05/M04 A3031 RMK A01 T00541042  RH  050%=      5-min Rain = 0
KCH1 191635Z 34018G26KT 05/M04 A3031 RMK A01 T00531043  RH  050%=      5-min Rain = 0
KCH1 191636Z 34015G23KT 05/M04 A3031 RMK A01 T00531042  RH  050%=      5-min Rain = 0
KCH1 191637Z 35018KT 05/M04 A3031 RMK A01 T00541041  RH  050%=      5-min Rain = 0
KCH1 191638Z 34018G24KT 05/M04 A3031 RMK A01 T00541043  RH  050%=      5-min Rain = 0
KCH1 191639Z 34018G23KT 05/M04 A3031 RMK A01 T00541043  RH  050%=      5-min Rain = 0
KCH1 191640Z 34017G25KT 05/M04 A3031 RMK A01 T00541043  RH  050%=      5-min Rain = 0
KCH1 191641Z 35012G17KT 05/M04 A3031 RMK A01 T00541042  RH  050%=      5-min Rain = 0
KCH1 191642Z 33015G25KT 06/M04 A3031 RMK A01 T00561038  RH  051%=      5-min Rain = 0
KCH1 191643Z 33017KT 06/M04 A3031 RMK A01 T00571040  RH  050%=      5-min Rain = 0
KCH1 191644Z 34016G23KT 06/M04 A3031 RMK A01 T00551041  RH  050%=      5-min Rain = 0
KCH1 191645Z 34017G26KT 06/M04 A3031 RMK A01 T00551041  RH  050%=      5-min Rain = 0
KCH1 191646Z 34020G26KT 06/M04 A3031 RMK A01 T00551041  RH  050%=      5-min Rain = 0
KCH1 191647Z 34017G22KT 06/M04 A3031 RMK A01 T00551041  RH  050%=      5-min Rain = 0
KCH1 191648Z 34019G25KT 06/M04 A3031 RMK A01 T00551041  RH  050%=      5-min Rain = 0
KCH1 191649Z 34015G20KT 05/M04 A3031 RMK A01 T00541041  RH  050%=      5-min Rain = 0
KCH1 191650Z 35012KT 06/M04 A3031 RMK A01 T00551039  RH  051%=      5-min Rain = 0
KCH1 191651Z 34014G19KT 06/M04 A3031 RMK A01 T00571037  RH  051%=      5-min Rain = 0
KCH1 191652Z 34011G18KT 06/M04 A3032 RMK A01 T00591037  RH  050%=      5-min Rain = 0
KCH1 191653Z 34013G19KT 06/M03 A3031 RMK A01 T00611034  RH  050%=      5-min Rain = 0
KCH1 191654Z 33013KT 06/M04 A3032 RMK A01 T00611036  RH  050%=      5-min Rain = 0
KCH1 191655Z 33015KT 06/M04 A3032 RMK A01 T00601037  RH  050%=      5-min Rain = 0
KCH1 191656Z 33017KT 06/M04 A3031 RMK A01 T00591038  RH  050%=      5-min Rain = 0
KCH1 191657Z 34012G17KT 06/M04 A3032 RMK A01 T00581037  RH  051%=      5-min Rain = 0
KCH1 191658Z 33014G19KT 06/M03 A3032 RMK A01 T00601034  RH  051%=      5-min Rain = 0
KCH1 191659Z 34015KT 06/M04 A3032 RMK A01 T00621036  RH  049%=      5-min Rain = 0
KCH1 191700Z 33012G17KT 06/M04 A3032 RMK A01 T00621037  RH  049%=      5-min Rain = 0
KCH1 191701Z 34014KT 06/M04 A3032 RMK A01 T00621036  RH  049%=      5-min Rain = 0
KCH1 191702Z 32012G17KT 06/M04 A3032 RMK A01 T00621036  RH  049%=      5-min Rain = 0
KCH1 191703Z 33020G26KT 06/M04 A3032 RMK A01 T00621037  RH  049%=      5-min Rain = 0
KCH1 191704Z 33015G21KT 06/M04 A3032 RMK A01 T00601039  RH  049%=      5-min Rain = 0
KCH1 191705Z 34016G21KT 06/M04 A3032 RMK A01 T00591038  RH  050%=      5-min Rain = 0
KCH1 191706Z 34015KT 06/M04 A3032 RMK A01 T00601038  RH  050%=      5-min Rain = 0
KCH1 191707Z 34013G18KT 06/M04 A3031 RMK A01 T00601037  RH  050%=      5-min Rain = 0
KCH1 191708Z 34013KT 06/M04 A3031 RMK A01 T00601036  RH  050%=      5-min Rain = 0
KCH1 191709Z 34014KT 06/M04 A3031 RMK A01 T00601036  RH  050%=      5-min Rain = 0
KCH1 191710Z 33012G17KT 06/M03 A3032 RMK A01 T00611034  RH  050%=      5-min Rain = 0
KCH1 191711Z 34013KT 06/M03 A3032 RMK A01 T00631034  RH  050%=      5-min Rain = 0
KCH1 191712Z 34012KT 06/M03 A3032 RMK A01 T00631034  RH  050%=      5-min Rain = 0
KCH1 191713Z 35014G20KT 07/M03 A3032 RMK A01 T00651031  RH  050%=      5-min Rain = 0
KCH1 191714Z 35016KT 07/M04 A3032 RMK A01 T00661036  RH  048%=      5-min Rain = 0
KCH1 191715Z 35019G25KT 07/M04 A3032 RMK A01 T00651037  RH  048%=      5-min Rain = 0
KCH1 191716Z 34016G21KT 06/M04 A3032 RMK A01 T00621041  RH  048%=      5-min Rain = 0
KCH1 191717Z 36016G21KT 06/M04 A3032 RMK A01 T00601041  RH  048%=      5-min Rain = 0
KCH1 191718Z 35013G18KT 06/M04 A3032 RMK A01 T00601039  RH  049%=      5-min Rain = 0
KCH1 191719Z 34015G20KT 06/M04 A3032 RMK A01 T00621036  RH  049%=      5-min Rain = 0
KCH1 191720Z 34018G23KT 06/M04 A3032 RMK A01 T00631037  RH  049%=      5-min Rain = 0
KCH1 191721Z 35016KT 06/M04 A3032 RMK A01 T00631039  RH  048%=      5-min Rain = 0
KCH1 191722Z 35014G19KT 06/M04 A3032 RMK A01 T00631037  RH  049%=      5-min Rain = 0
KCH1 191723Z 36013G18KT 06/M04 A3032 RMK A01 T00641036  RH  049%=      5-min Rain = 0
KCH1 191724Z 35009KT 07/M04 A3032 RMK A01 T00651035  RH  049%=      5-min Rain = 0
KCH1 191725Z 34011G18KT 07/M03 A3031 RMK A01 T00691030  RH  049%=      5-min Rain = 0
KCH1 191726Z 34012KT 07/M03 A3032 RMK A01 T00711032  RH  048%=      5-min Rain = 0
KCH1 191727Z 35015G23KT 07/M03 A3031 RMK A01 T00711033  RH  047%=      5-min Rain = 0
KCH1 191728Z 34016G21KT 07/M04 A3031 RMK A01 T00691037  RH  047%=      5-min Rain = 0
KCH1 191729Z 36018KT 07/M04 A3031 RMK A01 T00671038  RH  047%=      5-min Rain = 0
KCH1 191730Z 36017G22KT 07/M04 A3031 RMK A01 T00651038  RH  047%=      5-min Rain = 0
KCH1 191731Z 35015G23KT 07/M04 A3031 RMK A01 T00661037  RH  048%=      5-min Rain = 0
KCH1 191732Z 34018KT 07/M04 A3031 RMK A01 T00681037  RH  047%=      5-min Rain = 0
KCH1 191733Z 34018G23KT 07/M04 A3031 RMK A01 T00671039  RH  047%=      5-min Rain = 0
KCH1 191734Z 35015G22KT 07/M04 A3031 RMK A01 T00661039  RH  047%=      5-min Rain = 0
KCH1 191735Z 34016G22KT 07/M04 A3031 RMK A01 T00661038  RH  047%=      5-min Rain = 0
KCH1 191736Z 35018KT 07/M04 A3031 RMK A01 T00671039  RH  047%=      5-min Rain = 0
KCH1 191737Z 35018G23KT 07/M04 A3031 RMK A01 T00671039  RH  047%=      5-min Rain = 0
KCH1 191738Z 35015G20KT 07/M04 A3031 RMK A01 T00671038  RH  047%=      5-min Rain = 0
KCH1 191739Z 35016KT 07/M04 A3031 RMK A01 T00681038  RH  047%=      5-min Rain = 0
KCH1 191740Z 00014KT 07/M04 A3031 RMK A01 T00681039  RH  047%=      5-min Rain = 0
KCH1 191741Z 35019KT 07/M04 A3031 RMK A01 T00681037  RH  047%=      5-min Rain = 0
KCH1 191742Z 00016G22KT 07/M04 A3031 RMK A01 T00691038  RH  047%=      5-min Rain = 0
KCH1 191743Z 00016G22KT 07/M04 A3031 RMK A01 T00681039  RH  046%=      5-min Rain = 0
KCH1 191744Z 33017G23KT 07/M04 A3031 RMK A01 T00681037  RH  047%=      5-min Rain = 0
KCH1 191745Z 34020KT 07/M04 A3031 RMK A01 T00691039  RH  046%=      5-min Rain = 0
KCH1 191746Z 33019KT 07/M04 A3031 RMK A01 T00671041  RH  046%=      5-min Rain = 0
KCH1 191747Z 33016KT 07/M04 A3031 RMK A01 T00661040  RH  047%=      5-min Rain = 0
KCH1 191748Z 34012KT 07/M04 A3031 RMK A01 T00661039  RH  047%=      5-min Rain = 0
KCH1 191749Z 34015G23KT 07/M04 A3031 RMK A01 T00681037  RH  047%=      5-min Rain = 0
KCH1 191750Z 34015G21KT 07/M04 A3031 RMK A01 T00691038  RH  047%=      5-min Rain = 0
KCH1 191751Z 35014KT 07/M04 A3031 RMK A01 T00691038  RH  047%=      5-min Rain = 0
KCH1 191752Z 00013KT 07/M04 A3031 RMK A01 T00711037  RH  046%=      5-min Rain = 0
KCH1 191753Z 35014G21KT 07/M04 A3031 RMK A01 T00731036  RH  046%=      5-min Rain = 0
KCH1 191754Z 35013KT 07/M04 A3031 RMK A01 T00731038  RH  045%=      5-min Rain = 0
KCH1 191755Z 33014G21KT 07/M04 A303 RMK A01 T00721037  RH  046%=      5-min Rain = 0
KCH1 191756Z 33018G27KT 07/M04 A303 RMK A01 T00731037  RH  045%=      5-min Rain = 0
KCH1 191757Z 33019G24KT 07/M04 A303 RMK A01 T00721039  RH  045%=      5-min Rain = 0
KCH1 191758Z 34017KT 07/M04 A303 RMK A01 T00701040  RH  045%=      5-min Rain = 0
KCH1 191759Z 34015KT 07/M04 A303 RMK A01 T00701039  RH  046%=      5-min Rain = 0
KCH1 191800Z 35009G14KT 07/M04 A303 RMK A01 T00691039  RH  046%=      5-min Rain = 0
KCH1 191801Z 33014KT 07/M03 A303 RMK A01 T00721033  RH  047%=      5-min Rain = 0
KCH1 191802Z 33016G22KT 08/M04 A303 RMK A01 T00751035  RH  046%=      5-min Rain = 0
KCH1 191803Z 33016KT 07/M04 A303 RMK A01 T00741037  RH  045%=      5-min Rain = 0
KCH1 191804Z 33014KT 07/M04 A303 RMK A01 T00731037  RH  046%=      5-min Rain = 0
KCH1 191805Z 34016G22KT 07/M04 A303 RMK A01 T00721037  RH  046%=      5-min Rain = 0
KCH1 191806Z 35017G23KT 07/M04 A303 RMK A01 T00721037  RH  046%=      5-min Rain = 0
KCH1 191807Z 35017G22KT 07/M04 A303 RMK A01 T00731038  RH  045%=      5-min Rain = 0
KCH1 191808Z 34013G21KT 07/M04 A303 RMK A01 T00731036  RH  046%=      5-min Rain = 0
KCH1 191809Z 33011KT 08/M03 A303 RMK A01 T00771032  RH  046%=      5-min Rain = 0
KCH1 191810Z 33011KT 08/M03 A303 RMK A01 T00791031  RH  046%=      5-min Rain = 0
KCH1 191811Z 34013KT 08/M04 A303 RMK A01 T00781035  RH  045%=      5-min Rain = 0
KCH1 191812Z 35016KT 08/M04 A303 RMK A01 T00771035  RH  045%=      5-min Rain = 0
KCH1 191813Z 34012G18KT 08/M04 A303 RMK A01 T00771036  RH  045%=      5-min Rain = 0
KCH1 191814Z 34015KT 08/M04 A303 RMK A01 T00781035  RH  045%=      5-min Rain = 0
KCH1 191815Z 34014G21KT 08/M03 A303 RMK A01 T00791034  RH  045%=      5-min Rain = 0
KCH1 191816Z 35013G18KT 08/M04 A303 RMK A01 T00791036  RH  044%=      5-min Rain = 0
KCH1 191817Z 34014G20KT 08/M04 A303 RMK A01 T00781037  RH  044%=      5-min Rain = 0
KCH1 191818Z 34016KT 08/M04 A303 RMK A01 T00781037  RH  044%=      5-min Rain = 0
KCH1 191819Z 35018G23KT 08/M04 A303 RMK A01 T00751040  RH  044%=      5-min Rain = 0
KCH1 191820Z 35017KT 07/M04 A303 RMK A01 T00731040  RH  045%=      5-min Rain = 0
KCH1 191821Z 35015G21KT 07/M04 A303 RMK A01 T00731038  RH  045%=      5-min Rain = 0
KCH1 191822Z 36015G22KT 07/M04 A303 RMK A01 T00731036  RH  046%=      5-min Rain = 0
KCH1 191823Z 34015G22KT 08/M03 A303 RMK A01 T00751034  RH  046%=      5-min Rain = 0
KCH1 191824Z 34014KT 08/M04 A303 RMK A01 T00781035  RH  045%=      5-min Rain = 0
KCH1 191825Z 34012G17KT 08/M04 A303 RMK A01 T00771035  RH  045%=      5-min Rain = 0
KCH1 191826Z 33016G21KT 08/M03 A3029 RMK A01 T00791034  RH  045%=      5-min Rain = 0
KCH1 191827Z 34012G17KT 08/M04 A303 RMK A01 T00771035  RH  045%=      5-min Rain = 0
KCH1 191828Z 34015KT 08/M04 A3029 RMK A01 T00771035  RH  045%=      5-min Rain = 0
KCH1 191829Z 34009KT 08/M03 A3029 RMK A01 T00771034  RH  045%=      5-min Rain = 0
KCH1 191830Z 32012G20KT 08/M03 A3029 RMK A01 T00811030  RH  046%=      5-min Rain = 0
KCH1 191831Z 32015G21KT 08/M03 A3029 RMK A01 T00831031  RH  044%=      5-min Rain = 0
KCH1 191832Z 33015G20KT 08/M04 A3029 RMK A01 T00811035  RH  044%=      5-min Rain = 0
KCH1 191833Z 34017KT 08/M03 A3029 RMK A01 T00801034  RH  044%=      5-min Rain = 0
KCH1 191834Z 34015G22KT 08/M03 A3029 RMK A01 T00801034  RH  044%=      5-min Rain = 0
KCH1 191835Z 34015KT 08/M04 A3029 RMK A01 T00811035  RH  044%=      5-min Rain = 0
KCH1 191836Z 33012KT 08/M03 A3029 RMK A01 T00811034  RH  044%=      5-min Rain = 0
KCH1 191837Z 33010KT 08/M03 A3029 RMK A01 T00821032  RH  044%=      5-min Rain = 0
KCH1 191838Z 33010KT 08/M03 A3029 RMK A01 T00841031  RH  044%=      5-min Rain = 0
KCH1 191839Z 33014KT 09/M03 A3029 RMK A01 T00861031  RH  044%=      5-min Rain = 0
KCH1 191840Z 32014G19KT 09/M03 A3029 RMK A01 T00861032  RH  043%=      5-min Rain = 0
KCH1 191841Z 34016G21KT 08/M03 A3029 RMK A01 T00841034  RH  043%=      5-min Rain = 0
KCH1 191842Z 34013G18KT 08/M03 A3029 RMK A01 T00831033  RH  044%=      5-min Rain = 0
KCH1 191843Z 34014KT 08/M03 A3029 RMK A01 T00831034  RH  043%=      5-min Rain = 0
KCH1 191844Z 34013G21KT 08/M04 A3029 RMK A01 T00831036  RH  043%=      5-min Rain = 0
KCH1 191845Z 34012KT 08/M03 A3029 RMK A01 T00841031  RH  044%=      5-min Rain = 0
KCH1 191846Z 33013G20KT 09/M03 A3029 RMK A01 T00861030  RH  044%=      5-min Rain = 0
KCH1 191847Z 34013G19KT 09/M03 A3029 RMK A01 T00861034  RH  043%=      5-min Rain = 0
KCH1 191848Z 34014G20KT 09/M03 A3029 RMK A01 T00851034  RH  043%=      5-min Rain = 0
KCH1 191849Z 33016KT 08/M04 A3029 RMK A01 T00841036  RH  043%=      5-min Rain = 0
KCH1 191850Z 34013G20KT 08/M04 A3029 RMK A01 T00821035  RH  043%=      5-min Rain = 0
KCH1 191851Z 34012G18KT 08/M03 A3029 RMK A01 T00821034  RH  044%=      5-min Rain = 0
KCH1 191852Z 34015G20KT 08/M03 A3029 RMK A01 T00831033  RH  044%=      5-min Rain = 0
KCH1 191853Z 35012G17KT 08/M03 A3029 RMK A01 T00831034  RH  043%=      5-min Rain = 0
KCH1 191854Z 33018G23KT 09/M03 A3028 RMK A01 T00851032  RH  043%=      5-min Rain = 0
KCH1 191855Z 33015KT 08/M03 A3029 RMK A01 T00841034  RH  043%=      5-min Rain = 0
KCH1 191856Z 34014G19KT 08/M03 A3028 RMK A01 T00831033  RH  044%=      5-min Rain = 0
KCH1 191857Z 32017KT 08/M03 A3028 RMK A01 T00841033  RH  043%=      5-min Rain = 0
KCH1 191858Z 35018G23KT 09/M03 A3028 RMK A01 T00861034  RH  043%=      5-min Rain = 0
KCH1 191859Z 35015KT 09/M04 A3028 RMK A01 T00861036  RH  042%=      5-min Rain = 0
KCH1 191900Z 34014KT 09/M03 A3028 RMK A01 T00861034  RH  043%=      5-min Rain = 0
KCH1 191901Z 34013G18KT 09/M03 A3028 RMK A01 T00871034  RH  042%=      5-min Rain = 0
KCH1 191902Z 35013KT 09/M04 A3028 RMK A01 T00871035  RH  042%=      5-min Rain = 0
KCH1 191903Z 33013KT 09/M04 A3028 RMK A01 T00881035  RH  042%=      5-min Rain = 0
KCH1 191904Z 34011G16KT 09/M03 A3028 RMK A01 T00901031  RH  042%=      5-min Rain = 0
KCH1 191905Z 34016G22KT 09/M03 A3028 RMK A01 T00931031  RH  042%=      5-min Rain = 0
KCH1 191906Z 34014KT 09/M03 A3028 RMK A01 T00921034  RH  041%=      5-min Rain = 0
KCH1 191907Z 35015KT 09/M04 A3028 RMK A01 T00901036  RH  041%=      5-min Rain = 0
KCH1 191908Z 34014KT 09/M04 A3028 RMK A01 T00881035  RH  042%=      5-min Rain = 0
KCH1 191909Z 34012KT 09/M03 A3028 RMK A01 T00891033  RH  042%=      5-min Rain = 0
KCH1 191910Z 36012G17KT 09/M03 A3028 RMK A01 T00901034  RH  042%=      5-min Rain = 0
KCH1 191911Z 00013KT 09/M03 A3028 RMK A01 T00901034  RH  042%=      5-min Rain = 0
KCH1 191912Z 34010KT 09/M03 A3027 RMK A01 T00891033  RH  042%=      5-min Rain = 0
KCH1 191913Z 33009KT 09/M03 A3027 RMK A01 T00911028  RH  043%=      5-min Rain = 0
KCH1 191914Z 32010KT 10/M03 A3028 RMK A01 T00951026  RH  043%=      5-min Rain = 0
KCH1 191915Z 33011KT 10/M03 A3027 RMK A01 T00961028  RH  042%=      5-min Rain = 0
KCH1 191916Z 33010G15KT 10/M03 A3027 RMK A01 T00961027  RH  042%=      5-min Rain = 0
KCH1 191917Z 33012G17KT 10/M03 A3027 RMK A01 T00961027  RH  042%=      5-min Rain = 0
KCH1 191918Z 33013KT 10/M03 A3027 RMK A01 T00961029  RH  041%=      5-min Rain = 0
KCH1 191919Z 32015G22KT 10/M03 A3027 RMK A01 T00961029  RH  041%=      5-min Rain = 0
KCH1 191920Z 33016KT 10/M03 A3027 RMK A01 T00961032  RH  040%=      5-min Rain = 0
KCH1 191921Z 33018G23KT 09/M03 A3027 RMK A01 T00941033  RH  041%=      5-min Rain = 0
KCH1 191922Z 34014G21KT 09/M03 A3027 RMK A01 T00931034  RH  041%=      5-min Rain = 0
KCH1 191923Z 34014G19KT 09/M03 A3027 RMK A01 T00931032  RH  041%=      5-min Rain = 0
KCH1 191924Z 33015G21KT 09/M03 A3027 RMK A01 T00941033  RH  041%=      5-min Rain = 0
KCH1 191925Z 34014G19KT 09/M03 A3027 RMK A01 T00921033  RH  041%=      5-min Rain = 0
KCH1 191926Z 35014G21KT 09/M03 A3027 RMK A01 T00931032  RH  041%=      5-min Rain = 0
KCH1 191927Z 34015KT 09/M03 A3027 RMK A01 T00941033  RH  041%=      5-min Rain = 0
KCH1 191928Z 34014G21KT 09/M03 A3027 RMK A01 T00931034  RH  041%=      5-min Rain = 0
KCH1 191929Z 34009G14KT 09/M03 A3027 RMK A01 T00911034  RH  041%=      5-min Rain = 0
KCH1 191930Z 32013G18KT 09/M03 A3026 RMK A01 T00931028  RH  042%=      5-min Rain = 0
KCH1 191931Z 32015KT 10/M03 A3026 RMK A01 T00951029  RH  042%=      5-min Rain = 0
KCH1 191932Z 33013KT 09/M03 A3026 RMK A01 T00931030  RH  042%=      5-min Rain = 0
KCH1 191933Z 33013KT 09/M03 A3026 RMK A01 T00931028  RH  042%=      5-min Rain = 0
KCH1 191934Z 32011G16KT 10/M03 A3026 RMK A01 T00951027  RH  042%=      5-min Rain = 0
KCH1 191935Z 33015KT 10/M03 A3026 RMK A01 T00971027  RH  042%=      5-min Rain = 0
KCH1 191936Z 33014KT 10/M03 A3026 RMK A01 T00981030  RH  041%=      5-min Rain = 0
KCH1 191937Z 33013KT 10/M03 A3026 RMK A01 T00981029  RH  041%=      5-min Rain = 0
KCH1 191938Z 33012G19KT 10/M03 A3026 RMK A01 T00991027  RH  041%=      5-min Rain = 0
KCH1 191939Z 33014G21KT 10/M03 A3026 RMK A01 T00991030  RH  040%=      5-min Rain = 0
KCH1 191940Z 33012KT 10/M03 A3026 RMK A01 T00981030  RH  040%=      5-min Rain = 0
KCH1 191941Z 33010KT 10/M03 A3026 RMK A01 T00971030  RH  041%=      5-min Rain = 0
KCH1 191942Z 32014G20KT 10/M03 A3026 RMK A01 T00981029  RH  041%=      5-min Rain = 0
KCH1 191943Z 34013KT 10/M03 A3026 RMK A01 T00991031  RH  040%=      5-min Rain = 0
KCH1 191944Z 33009KT 10/M03 A3026 RMK A01 T01001031  RH  040%=      5-min Rain = 0
KCH1 191945Z 34011G18KT 10/M03 A3026 RMK A01 T01021029  RH  040%=      5-min Rain = 0
KCH1 191946Z 33016G21KT 10/M03 A3026 RMK A01 T01041030  RH  039%=      5-min Rain = 0
KCH1 191947Z 33014KT 10/M03 A3026 RMK A01 T01021034  RH  038%=      5-min Rain = 0
KCH1 191948Z 34013G22KT 10/M03 A3026 RMK A01 T01011033  RH  039%=      5-min Rain = 0
KCH1 191949Z 35015KT 10/M03 A3026 RMK A01 T01011033  RH  039%=      5-min Rain = 0
KCH1 191950Z 35015KT 10/M04 A3026 RMK A01 T00991035  RH  039%=      5-min Rain = 0
KCH1 191951Z 00013KT 10/M04 A3026 RMK A01 T00981035  RH  039%=      5-min Rain = 0
KCH1 191952Z 33015G20KT 10/M03 A3026 RMK A01 T00981033  RH  040%=      5-min Rain = 0
KCH1 191953Z 32017KT 10/M03 A3026 RMK A01 T01001031  RH  040%=      5-min Rain = 0
KCH1 191954Z 32017G22KT 10/M03 A3026 RMK A01 T01011033  RH  039%=      5-min Rain = 0
KCH1 191955Z 33018KT 10/M04 A3026 RMK A01 T00991035  RH  039%=      5-min Rain = 0
KCH1 191956Z 34016KT 10/M04 A3026 RMK A01 T00981035  RH  039%=      5-min Rain = 0
KCH1 191957Z 35014KT 10/M04 A3026 RMK A01 T00991035  RH  039%=      5-min Rain = 0
KCH1 191958Z 34016KT 10/M03 A3026 RMK A01 T01001033  RH  039%=      5-min Rain = 0
KCH1 191959Z 34015G21KT 10/M03 A3026 RMK A01 T01011033  RH  039%=      5-min Rain = 0
KCH1 192000Z 35017G22KT 10/M03 A3026 RMK A01 T01011034  RH  039%=      5-min Rain = 0
KCH1 192001Z 33017KT 10/M03 A3026 RMK A01 T01011031  RH  039%=      5-min Rain = 0
KCH1 192002Z 32018KT 10/M03 A3025 RMK A01 T01021033  RH  039%=      5-min Rain = 0
KCH1 192003Z 32016KT 10/M03 A3025 RMK A01 T01011034  RH  039%=      5-min Rain = 0
KCH1 192004Z 33014KT 10/M03 A3025 RMK A01 T01001034  RH  039%=      5-min Rain = 0
KCH1 192005Z 32016KT 10/M03 A3025 RMK A01 T01001032  RH  039%=      5-min Rain = 0
KCH1 192006Z 33017G25KT 10/M03 A3025 RMK A01 T01011034  RH  038%=      5-min Rain = 0
KCH1 192007Z 33013KT 10/M03 A3025 RMK A01 T01011031  RH  039%=      5-min Rain = 0
KCH1 192008Z 34015G21KT 10/M03 A3025 RMK A01 T01031030  RH  039%=      5-min Rain = 0
KCH1 192009Z 34015KT 10/M03 A3025 RMK A01 T01041032  RH  038%=      5-min Rain = 0
KCH1 192010Z 33018G24KT 10/M03 A3025 RMK A01 T01041032  RH  038%=      5-min Rain = 0
KCH1 192011Z 34013G19KT 10/M04 A3025 RMK A01 T01031035  RH  038%=      5-min Rain = 0
KCH1 192012Z 32012KT 10/M03 A3025 RMK A01 T01031032  RH  039%=      5-min Rain = 0
KCH1 192013Z 33016G21KT 10/M03 A3025 RMK A01 T01041033  RH  038%=      5-min Rain = 0
KCH1 192014Z 33014G22KT 10/M03 A3025 RMK A01 T01041032  RH  038%=      5-min Rain = 0
KCH1 192015Z 33014KT 11/M03 A3025 RMK A01 T01051032  RH  038%=      5-min Rain = 0
KCH1 192016Z 35013G18KT 11/M03 A3025 RMK A01 T01051032  RH  038%=      5-min Rain = 0
KCH1 192017Z 34015KT 11/M03 A3025 RMK A01 T01051033  RH  038%=      5-min Rain = 0
KCH1 192018Z 34013G21KT 11/M03 A3025 RMK A01 T01051031  RH  038%=      5-min Rain = 0
KCH1 192019Z 32013G19KT 11/M03 A3025 RMK A01 T01071030  RH  038%=      5-min Rain = 0
KCH1 192020Z 33014G20KT 11/M03 A3025 RMK A01 T01071031  RH  038%=      5-min Rain = 0
KCH1 192021Z 32014KT 11/M03 A3025 RMK A01 T01071031  RH  038%=      5-min Rain = 0
KCH1 192022Z 33017G22KT 11/M03 A3025 RMK A01 T01071031  RH  038%=      5-min Rain = 0
KCH1 192023Z 33018G23KT 11/M03 A3025 RMK A01 T01071031  RH  038%=      5-min Rain = 0
KCH1 192024Z 34016KT 11/M03 A3025 RMK A01 T01071032  RH  038%=      5-min Rain = 0
KCH1 192025Z 33015G22KT 11/M03 A3025 RMK A01 T01071032  RH  038%=      5-min Rain = 0
KCH1 192026Z 33014G21KT 11/M03 A3025 RMK A01 T01071033  RH  037%=      5-min Rain = 0
KCH1 192027Z 33018KT 11/M03 A3025 RMK A01 T01081031  RH  038%=      5-min Rain = 0
KCH1 192028Z 34016KT 11/M03 A3025 RMK A01 T01081033  RH  037%=      5-min Rain = 0
KCH1 192029Z 34013G18KT 11/M03 A3025 RMK A01 T01071033  RH  037%=      5-min Rain = 0
KCH1 192030Z 33013G18KT 11/M03 A3025 RMK A01 T01071031  RH  038%=      5-min Rain = 0
KCH1 192031Z 35014G20KT 11/M03 A3025 RMK A01 T01091030  RH  038%=      5-min Rain = 0
KCH1 192032Z 35015G20KT 11/M03 A3025 RMK A01 T01101030  RH  037%=      5-min Rain = 0
KCH1 192033Z 35015G20KT 11/M03 A3025 RMK A01 T01101030  RH  037%=      5-min Rain = 0
KCH1 192034Z 35017G22KT 11/M03 A3025 RMK A01 T01101031  RH  037%=      5-min Rain = 0
KCH1 192035Z 35016KT 11/M03 A3025 RMK A01 T01091031  RH  037%=      5-min Rain = 0
KCH1 192036Z 34010G16KT 11/M03 A3025 RMK A01 T01091029  RH  038%=      5-min Rain = 0
KCH1 192037Z 33018G23KT 11/M03 A3025 RMK A01 T01111027  RH  038%=      5-min Rain = 0
KCH1 192038Z 33020G25KT 11/M03 A3025 RMK A01 T01101031  RH  037%=      5-min Rain = 0
KCH1 192039Z 33016G22KT 11/M03 A3025 RMK A01 T01081032  RH  037%=      5-min Rain = 0
KCH1 192040Z 34017G22KT 11/M03 A3025 RMK A01 T01081030  RH  038%=      5-min Rain = 0
KCH1 192041Z 34014KT 11/M03 A3025 RMK A01 T01081030  RH  038%=      5-min Rain = 0
KCH1 192042Z 34014G20KT 11/M03 A3025 RMK A01 T01091029  RH  038%=      5-min Rain = 0
KCH1 192043Z 33018KT 11/M03 A3025 RMK A01 T01101030  RH  037%=      5-min Rain = 0
KCH1 192044Z 34015G20KT 11/M03 A3025 RMK A01 T01101031  RH  037%=      5-min Rain = 0
KCH1 192045Z 34014KT 11/M03 A3025 RMK A01 T01101030  RH  037%=      5-min Rain = 0
KCH1 192046Z 34017G24KT 11/M03 A3025 RMK A01 T01101030  RH  037%=      5-min Rain = 0
KCH1 192047Z 34015G21KT 11/M03 A3025 RMK A01 T01101031  RH  037%=      5-min Rain = 0
KCH1 192048Z 33016G21KT 11/M03 A3025 RMK A01 T01101030  RH  037%=      5-min Rain = 0
KCH1 192049Z 34017G22KT 11/M03 A3025 RMK A01 T01101031  RH  037%=      5-min Rain = 0
KCH1 192050Z 34016G22KT 11/M03 A3025 RMK A01 T01091031  RH  037%=      5-min Rain = 0
KCH1 192051Z 35016G22KT 11/M03 A3025 RMK A01 T01091031  RH  037%=      5-min Rain = 0
KCH1 192052Z 35012KT 11/M03 A3025 RMK A01 T01081032  RH  037%=      5-min Rain = 0
KCH1 192053Z 36012KT 11/M03 A3025 RMK A01 T01081030  RH  038%=      5-min Rain = 0
KCH1 192054Z 34012KT 11/M03 A3025 RMK A01 T01091028  RH  038%=      5-min Rain = 0
KCH1 192055Z 34012G17KT 11/M03 A3025 RMK A01 T01121026  RH  038%=      5-min Rain = 0
KCH1 192056Z 35018G23KT 11/M03 A3025 RMK A01 T01131028  RH  037%=      5-min Rain = 0
KCH1 192057Z 34014KT 11/M03 A3025 RMK A01 T01111031  RH  037%=      5-min Rain = 0
KCH1 192058Z 33012G18KT 11/M03 A3024 RMK A01 T01101030  RH  037%=      5-min Rain = 0
KCH1 192059Z 34015KT 11/M03 A3024 RMK A01 T01121028  RH  037%=      5-min Rain = 0
KCH1 192100Z 34016KT 11/M03 A3024 RMK A01 T01131031  RH  037%=      5-min Rain = 0
KCH1 192101Z 34018G24KT 11/M03 A3024 RMK A01 T01131031  RH  036%=      5-min Rain = 0
KCH1 192102Z 34014G21KT 11/M03 A3024 RMK A01 T01131031  RH  036%=      5-min Rain = 0
KCH1 192103Z 33016KT 11/M03 A3024 RMK A01 T01131031  RH  036%=      5-min Rain = 0
KCH1 192104Z 34013G19KT 11/M03 A3024 RMK A01 T01141030  RH  036%=      5-min Rain = 0
KCH1 192105Z 35013KT 11/M03 A3024 RMK A01 T01131030  RH  036%=      5-min Rain = 0
KCH1 192106Z 00011G16KT 11/M03 A3024 RMK A01 T01131031  RH  036%=      5-min Rain = 0
KCH1 192107Z 36013KT 11/M03 A3024 RMK A01 T01141029  RH  037%=      5-min Rain = 0
KCH1 192108Z 35014KT 12/M03 A3024 RMK A01 T01151030  RH  036%=      5-min Rain = 0
KCH1 192109Z 34015G22KT 12/M03 A3024 RMK A01 T01151031  RH  036%=      5-min Rain = 0
KCH1 192110Z 00013G18KT 11/M03 A3024 RMK A01 T01141030  RH  036%=      5-min Rain = 0
KCH1 192111Z 34016G22KT 11/M03 A3024 RMK A01 T01141030  RH  036%=      5-min Rain = 0
KCH1 192112Z 34010G16KT 11/M03 A3025 RMK A01 T01141028  RH  037%=      5-min Rain = 0
KCH1 192113Z 33019KT 12/M03 A3024 RMK A01 T01161028  RH  036%=      5-min Rain = 0
KCH1 192114Z 34015G20KT 12/M03 A3025 RMK A01 T01151031  RH  036%=      5-min Rain = 0
KCH1 192115Z 34018KT 11/M03 A3025 RMK A01 T01141031  RH  036%=      5-min Rain = 0
KCH1 192116Z 34012G20KT 11/M03 A3025 RMK A01 T01141031  RH  036%=      5-min Rain = 0
KCH1 192117Z 34014G19KT 11/M03 A3025 RMK A01 T01141031  RH  036%=      5-min Rain = 0
KCH1 192118Z 33013G19KT 11/M03 A3025 RMK A01 T01141030  RH  036%=      5-min Rain = 0
KCH1 192119Z 32018KT 11/M03 A3025 RMK A01 T01141030  RH  036%=      5-min Rain = 0
KCH1 192120Z 33015G20KT 11/M03 A3025 RMK A01 T01141030  RH  036%=      5-min Rain = 0
KCH1 192121Z 33014G19KT 11/M03 A3025 RMK A01 T01141030  RH  036%=      5-min Rain = 0
KCH1 192122Z 33012KT 12/M03 A3025 RMK A01 T01151029  RH  037%=      5-min Rain = 0
KCH1 192123Z 33018KT 12/M03 A3024 RMK A01 T01161028  RH  036%=      5-min Rain = 0
KCH1 192124Z 34020KT 11/M03 A3024 RMK A01 T01141032  RH  036%=      5-min Rain = 0
KCH1 192125Z 34018G23KT 11/M03 A3025 RMK A01 T01131033  RH  036%=      5-min Rain = 0
KCH1 192126Z 34018G26KT 11/M03 A3025 RMK A01 T01121032  RH  036%=      5-min Rain = 0
KCH1 192127Z 34013G23KT 11/M03 A3025 RMK A01 T01121034  RH  036%=      5-min Rain = 0
KCH1 192128Z 33011KT 11/M03 A3025 RMK A01 T01121031  RH  036%=      5-min Rain = 0
KCH1 192129Z 35016G22KT 11/M03 A3025 RMK A01 T01141031  RH  036%=      5-min Rain = 0
KCH1 192130Z 34015KT 11/M03 A3025 RMK A01 T01131033  RH  036%=      5-min Rain = 0
KCH1 192131Z 33014G20KT 11/M03 A3024 RMK A01 T01131031  RH  036%=      5-min Rain = 0
KCH1 192132Z 33017G24KT 12/M03 A3025 RMK A01 T01151030  RH  036%=      5-min Rain = 0
KCH1 192133Z 34020KT 12/M03 A3025 RMK A01 T01151033  RH  036%=      5-min Rain = 0
KCH1 192134Z 33019G24KT 11/M03 A3025 RMK A01 T01131034  RH  035%=      5-min Rain = 0
KCH1 192135Z 32015KT 11/M03 A3025 RMK A01 T01121034  RH  036%=      5-min Rain = 0
KCH1 192136Z 32020G25KT 11/M03 A3024 RMK A01 T01121033  RH  036%=      5-min Rain = 0
KCH1 192137Z 33017G23KT 11/M03 A3025 RMK A01 T01121034  RH  036%=      5-min Rain = 0
KCH1 192138Z 33017KT 11/M03 A3025 RMK A01 T01121034  RH  036%=      5-min Rain = 0
KCH1 192139Z 35012G17KT 11/M03 A3025 RMK A01 T01131031  RH  037%=      5-min Rain = 0
KCH1 192140Z 33008KT 12/M03 A3025 RMK A01 T01151028  RH  037%=      5-min Rain = 0
KCH1 192141Z 33013G20KT 12/M03 A3025 RMK A01 T01181028  RH  036%=      5-min Rain = 0
KCH1 192142Z 33015G20KT 12/M03 A3025 RMK A01 T01181029  RH  036%=      5-min Rain = 0
KCH1 192143Z 34020KT 12/M03 A3025 RMK A01 T01181031  RH  035%=      5-min Rain = 0
KCH1 192144Z 33017G23KT 12/M03 A3025 RMK A01 T01161034  RH  035%=      5-min Rain = 0
KCH1 192145Z 33015KT 12/M03 A3025 RMK A01 T01151033  RH  035%=      5-min Rain = 0
KCH1 192146Z 33016G22KT 12/M03 A3025 RMK A01 T01151032  RH  036%=      5-min Rain = 0
KCH1 192147Z 33016G22KT 12/M03 A3025 RMK A01 T01151034  RH  035%=      5-min Rain = 0
KCH1 192148Z 33015G20KT 11/M03 A3025 RMK A01 T01141033  RH  036%=      5-min Rain = 0
KCH1 192149Z 33013G20KT 11/M03 A3025 RMK A01 T01141032  RH  036%=      5-min Rain = 0
KCH1 192150Z 34016KT 12/M03 A3025 RMK A01 T01151032  RH  036%=      5-min Rain = 0
KCH1 192151Z 33012G18KT 12/M03 A3025 RMK A01 T01161032  RH  036%=      5-min Rain = 0
KCH1 192152Z 33015G20KT 12/M03 A3025 RMK A01 T01161031  RH  036%=      5-min Rain = 0
KCH1 192153Z 35014G22KT 12/M03 A3025 RMK A01 T01171031  RH  036%=      5-min Rain = 0
KCH1 192154Z 34014KT 12/M03 A3025 RMK A01 T01171032  RH  035%=      5-min Rain = 0
KCH1 192155Z 35014G20KT 12/M03 A3025 RMK A01 T01171031  RH  035%=      5-min Rain = 0
KCH1 192156Z 34012G18KT 12/M03 A3025 RMK A01 T01171032  RH  035%=      5-min Rain = 0
KCH1 192157Z 34014G21KT 12/M03 A3025 RMK A01 T01171031  RH  035%=      5-min Rain = 0
KCH1 192158Z 34019G25KT 12/M03 A3025 RMK A01 T01171033  RH  035%=      5-min Rain = 0
KCH1 192159Z 34015G21KT 12/M03 A3025 RMK A01 T01151033  RH  035%=      5-min Rain = 0
KCH1 192200Z 33015KT 12/M03 A3025 RMK A01 T01161032  RH  036%=      5-min Rain = 0
KCH1 192201Z 35016KT 12/M03 A3025 RMK A01 T01151033  RH  035%=      5-min Rain = 0
KCH1 192202Z 35017G22KT 12/M03 A3025 RMK A01 T01151033  RH  035%=      5-min Rain = 0
KCH1 192203Z 35015KT 11/M04 A3025 RMK A01 T01141035  RH  035%=      5-min Rain = 0
KCH1 192204Z 35015KT 11/M03 A3025 RMK A01 T01141033  RH  036%=      5-min Rain = 0
KCH1 192205Z 00011KT 11/M03 A3025 RMK A01 T01141034  RH  035%=      5-min Rain = 0
KCH1 192206Z 36017KT 12/M03 A3025 RMK A01 T01151033  RH  035%=      5-min Rain = 0
KCH1 192207Z 35015G20KT 12/M03 A3025 RMK A01 T01151034  RH  035%=      5-min Rain = 0
KCH1 192208Z 34014G20KT 12/M03 A3025 RMK A01 T01151032  RH  036%=      5-min Rain = 0
KCH1 192209Z 34015G21KT 12/M03 A3025 RMK A01 T01151033  RH  035%=      5-min Rain = 0
KCH1 192210Z 34017G23KT 11/M04 A3025 RMK A01 T01141035  RH  035%=      5-min Rain = 0
KCH1 192211Z 34018G25KT 11/M04 A3025 RMK A01 T01141035  RH  035%=      5-min Rain = 0
KCH1 192212Z 35015G20KT 11/M03 A3025 RMK A01 T01141033  RH  036%=      5-min Rain = 0
KCH1 192213Z 35017G22KT 11/M03 A3025 RMK A01 T01141033  RH  035%=      5-min Rain = 0
KCH1 192214Z 35014G19KT 11/M03 A3025 RMK A01 T01141034  RH  035%=      5-min Rain = 0
KCH1 192215Z 34012KT 11/M03 A3025 RMK A01 T01141033  RH  036%=      5-min Rain = 0
KCH1 192216Z 34015KT 11/M03 A3025 RMK A01 T01141034  RH  035%=      5-min Rain = 0
KCH1 192217Z 34012KT 11/M03 A3025 RMK A01 T01141034  RH  035%=      5-min Rain = 0
KCH1 192218Z 35008KT 11/M03 A3025 RMK A01 T01141032  RH  036%=      5-min Rain = 0
KCH1 192219Z 35011KT 12/M03 A3025 RMK A01 T01151032  RH  036%=      5-min Rain = 0
KCH1 192220Z 35008KT 12/M03 A3025 RMK A01 T01161031  RH  036%=      5-min Rain = 0
KCH1 192221Z 36010G17KT 12/M03 A3025 RMK A01 T01171030  RH  036%=      5-min Rain = 0
KCH1 192222Z 35014KT 12/M03 A3025 RMK A01 T01171031  RH  035%=      5-min Rain = 0
KCH1 192223Z 36014KT 12/M03 A3025 RMK A01 T01171034  RH  035%=      5-min Rain = 0
KCH1 192224Z 35014G19KT 12/M03 A3025 RMK A01 T01151034  RH  035%=      5-min Rain = 0
KCH1 192225Z 00013KT 11/M04 A3025 RMK A01 T01141035  RH  035%=      5-min Rain = 0
KCH1 192226Z 36011KT 11/M03 A3025 RMK A01 T01141034  RH  035%=      5-min Rain = 0
KCH1 192227Z 35011KT 11/M03 A3025 RMK A01 T01141032  RH  036%=      5-min Rain = 0
KCH1 192228Z 36015KT 11/M03 A3025 RMK A01 T01141033  RH  036%=      5-min Rain = 0
KCH1 192229Z 35016G21KT 12/M03 A3025 RMK A01 T01151033  RH  035%=      5-min Rain = 0
KCH1 192230Z 35013G19KT 11/M03 A3025 RMK A01 T01141034  RH  035%=      5-min Rain = 0
KCH1 192231Z 34013KT 11/M03 A3025 RMK A01 T01141032  RH  036%=      5-min Rain = 0
KCH1 192232Z 36014KT 11/M03 A3025 RMK A01 T01141033  RH  036%=      5-min Rain = 0
KCH1 192233Z 35010G15KT 11/M03 A3025 RMK A01 T01141032  RH  036%=      5-min Rain = 0
KCH1 192234Z 36013KT 11/M03 A3025 RMK A01 T01141032  RH  036%=      5-min Rain = 0
KCH1 192235Z 36011KT 11/M03 A3025 RMK A01 T01141033  RH  036%=      5-min Rain = 0
KCH1 192236Z 35012KT 11/M03 A3025 RMK A01 T01141031  RH  036%=      5-min Rain = 0
KCH1 192237Z 00013G18KT 11/M03 A3025 RMK A01 T01141032  RH  036%=      5-min Rain = 0
KCH1 192238Z 01012KT 11/M03 A3025 RMK A01 T01141033  RH  036%=      5-min Rain = 0
KCH1 192239Z 00011KT 11/M03 A3025 RMK A01 T01141033  RH  036%=      5-min Rain = 0
KCH1 192240Z 36012KT 11/M03 A3025 RMK A01 T01131033  RH  036%=      5-min Rain = 0
KCH1 192241Z 35014KT 11/M03 A3025 RMK A01 T01131032  RH  036%=      5-min Rain = 0
KCH1 192242Z 35014KT 11/M03 A3025 RMK A01 T01131032  RH  036%=      5-min Rain = 0
KCH1 192243Z 34016KT 11/M03 A3025 RMK A01 T01131033  RH  036%=      5-min Rain = 0
KCH1 192244Z 34014KT 11/M03 A3025 RMK A01 T01131033  RH  036%=      5-min Rain = 0
KCH1 192245Z 35012KT 11/M03 A3026 RMK A01 T01121032  RH  036%=      5-min Rain = 0
KCH1 192246Z 34009KT 11/M03 A3026 RMK A01 T01131030  RH  037%=      5-min Rain = 0
KCH1 192247Z 34012KT 11/M03 A3026 RMK A01 T01131030  RH  036%=      5-min Rain = 0
KCH1 192248Z 34011G17KT 11/M03 A3026 RMK A01 T01131030  RH  036%=      5-min Rain = 0
KCH1 192249Z 34014KT 11/M03 A3026 RMK A01 T01131031  RH  036%=      5-min Rain = 0
KCH1 192250Z 35014KT 11/M03 A3026 RMK A01 T01131031  RH  036%=      5-min Rain = 0
KCH1 192251Z 35009KT 11/M03 A3026 RMK A01 T01131031  RH  036%=      5-min Rain = 0
KCH1 192252Z 35008G13KT 11/M03 A3026 RMK A01 T01121031  RH  037%=      5-min Rain = 0
KCH1 192253Z 35009KT 11/M03 A3026 RMK A01 T01121030  RH  037%=      5-min Rain = 0
KCH1 192254Z 35010KT 11/M03 A3026 RMK A01 T01121030  RH  037%=      5-min Rain = 0
KCH1 192255Z 35009KT 11/M03 A3026 RMK A01 T01121029  RH  037%=      5-min Rain = 0
KCH1 192256Z 36011KT 11/M03 A3026 RMK A01 T01121028  RH  037%=      5-min Rain = 0
KCH1 192257Z 00008KT 11/M03 A3026 RMK A01 T01131029  RH  037%=      5-min Rain = 0
KCH1 192258Z 36011KT 11/M03 A3026 RMK A01 T01131028  RH  037%=      5-min Rain = 0
KCH1 192259Z 00011KT 11/M03 A3026 RMK A01 T01121030  RH  037%=      5-min Rain = 0
KCH1 192300Z 36012KT 11/M03 A3026 RMK A01 T01111031  RH  037%=      5-min Rain = 0
KCH1 192301Z 00011KT 11/M03 A3026 RMK A01 T01111030  RH  037%=      5-min Rain = 0
KCH1 192302Z 35012G18KT 11/M03 A3026 RMK A01 T01101031  RH  037%=      5-min Rain = 0
KCH1 192303Z 36013G18KT 11/M03 A3026 RMK A01 T01101031  RH  037%=      5-min Rain = 0
KCH1 192304Z 36012KT 11/M03 A3026 RMK A01 T01101032  RH  037%=      5-min Rain = 0
KCH1 192305Z 36010KT 11/M03 A3026 RMK A01 T01091031  RH  037%=      5-min Rain = 0
KCH1 192306Z 00010KT 11/M03 A3026 RMK A01 T01091030  RH  038%=      5-min Rain = 0
KCH1 192307Z 00010G15KT 11/M03 A3026 RMK A01 T01091030  RH  038%=      5-min Rain = 0
KCH1 192308Z 01011KT 11/M03 A3026 RMK A01 T01091031  RH  037%=      5-min Rain = 0
KCH1 192309Z 34009KT 11/M03 A3026 RMK A01 T01091030  RH  038%=      5-min Rain = 0
KCH1 192310Z 35008KT 11/M03 A3026 RMK A01 T01091029  RH  038%=      5-min Rain = 0
KCH1 192311Z 35008KT 11/M03 A3026 RMK A01 T01091029  RH  038%=      5-min Rain = 0
KCH1 192312Z 35007KT 11/M03 A3026 RMK A01 T01091028  RH  038%=      5-min Rain = 0
KCH1 192313Z 36006KT 11/M03 A3026 RMK A01 T01091028  RH  038%=      5-min Rain = 0
KCH1 192314Z 00011KT 11/M03 A3026 RMK A01 T01091028  RH  038%=      5-min Rain = 0
KCH1 192315Z 00009KT 11/M03 A3026 RMK A01 T01081030  RH  038%=      5-min Rain = 0
KCH1 192316Z 35009KT 11/M03 A3026 RMK A01 T01081028  RH  038%=      5-min Rain = 0
KCH1 192317Z 35011G16KT 11/M03 A3026 RMK A01 T01081028  RH  038%=      5-min Rain = 0
KCH1 192318Z 36010KT 11/M03 A3026 RMK A01 T01081027  RH  039%=      5-min Rain = 0
KCH1 192319Z 36008KT 11/M03 A3026 RMK A01 T01081028  RH  039%=      5-min Rain = 0
KCH1 192320Z 00008KT 11/M03 A3026 RMK A01 T01071027  RH  039%=      5-min Rain = 0
KCH1 192321Z 36010KT 11/M03 A3026 RMK A01 T01071027  RH  039%=      5-min Rain = 0
KCH1 192322Z 00010KT 11/M03 A3026 RMK A01 T01061028  RH  039%=      5-min Rain = 0
KCH1 192323Z 36010KT 11/M03 A3026 RMK A01 T01051029  RH  039%=      5-min Rain = 0
KCH1 192324Z 00008KT 11/M03 A3026 RMK A01 T01051028  RH  039%=      5-min Rain = 0
KCH1 192325Z 00009KT 11/M03 A3026 RMK A01 T01051029  RH  039%=      5-min Rain = 0
KCH1 192326Z 36011KT 10/M03 A3026 RMK A01 T01041029  RH  039%=      5-min Rain = 0
KCH1 192327Z 00012KT 10/M03 A3026 RMK A01 T01041030  RH  039%=      5-min Rain = 0
KCH1 192328Z 35010KT 10/M03 A3026 RMK A01 T01041030  RH  039%=      5-min Rain = 0
KCH1 192329Z 36009KT 10/M03 A3026 RMK A01 T01041030  RH  039%=      5-min Rain = 0
KCH1 192330Z 36010KT 10/M03 A3026 RMK A01 T01031030  RH  039%=      5-min Rain = 0
KCH1 192331Z 35007KT 10/M03 A3026 RMK A01 T01031029  RH  039%=      5-min Rain = 0
KCH1 192332Z 36007KT 10/M03 A3026 RMK A01 T01031028  RH  040%=      5-min Rain = 0
KCH1 192333Z 00009KT 10/M03 A3027 RMK A01 T01021028  RH  040%=      5-min Rain = 0
KCH1 192334Z 36009KT 10/M03 A3026 RMK A01 T01021029  RH  040%=      5-min Rain = 0
KCH1 192335Z 01008KT 10/M03 A3026 RMK A01 T01021029  RH  040%=      5-min Rain = 0
KCH1 192336Z 01009KT 10/M03 A3027 RMK A01 T01011029  RH  040%=      5-min Rain = 0
KCH1 192337Z 01011KT 10/M03 A3027 RMK A01 T01001029  RH  040%=      5-min Rain = 0
KCH1 192338Z 36011KT 10/M03 A3026 RMK A01 T01001029  RH  040%=      5-min Rain = 0
KCH1 192339Z 01007KT 10/M03 A3026 RMK A01 T01001029  RH  040%=      5-min Rain = 0
KCH1 192340Z 01008KT 10/M03 A3026 RMK A01 T01001028  RH  041%=      5-min Rain = 0
KCH1 192341Z 00008KT 10/M03 A3026 RMK A01 T00991028  RH  041%=      5-min Rain = 0
KCH1 192342Z 00008KT 10/M03 A3026 RMK A01 T00981028  RH  041%=      5-min Rain = 0
KCH1 192343Z 01008KT 10/M03 A3026 RMK A01 T00981028  RH  041%=      5-min Rain = 0
KCH1 192344Z 00007KT 10/M03 A3027 RMK A01 T00981028  RH  041%=      5-min Rain = 0
KCH1 192345Z 00006KT 10/M03 A3027 RMK A01 T00971027  RH  042%=      5-min Rain = 0
KCH1 192346Z 01008KT 10/M03 A3027 RMK A01 T00961027  RH  042%=      5-min Rain = 0
KCH1 192347Z 00007KT 10/M03 A3027 RMK A01 T00961028  RH  042%=      5-min Rain = 0
KCH1 192348Z 01007KT 10/M03 A3026 RMK A01 T00961028  RH  042%=      5-min Rain = 0
KCH1 192349Z 01008KT 10/M03 A3026 RMK A01 T00961027  RH  042%=      5-min Rain = 0
KCH1 192350Z 00009KT 10/M03 A3026 RMK A01 T00951028  RH  042%=      5-min Rain = 0
KCH1 192351Z 00008KT 09/M03 A3027 RMK A01 T00941028  RH  042%=      5-min Rain = 0
KCH1 192352Z 00007KT 09/M03 A3027 RMK A01 T00941028  RH  042%=      5-min Rain = 0
KCH1 192353Z 00006KT 09/M03 A3027 RMK A01 T00931028  RH  042%=      5-min Rain = 0
KCH1 192354Z 00008KT 09/M03 A3027 RMK A01 T00931028  RH  043%=      5-min Rain = 0
KCH1 192355Z 00007KT 09/M03 A3027 RMK A01 T00921027  RH  043%=      5-min Rain = 0
KCH1 192356Z 36006KT 09/M03 A3027 RMK A01 T00911028  RH  043%=      5-min Rain = 0
KCH1 192357Z 01006KT 09/M03 A3027 RMK A01 T00911027  RH  043%=      5-min Rain = 0
KCH1 192358Z 01008KT 09/M03 A3027 RMK A01 T00901027  RH  044%=      5-min Rain = 0
KCH1 192359Z 00008KT 09/M03 A3027 RMK A01 T00891029  RH  043%=      5-min Rain = 0
KCH1 200000Z 36008KT 09/M03 A3027 RMK A01 T00901029  RH  043%=      5-min Rain = 0
KCH1 200001Z 00006KT 09/M03 A3027 RMK A01 T00901029  RH  043%=      5-min Rain = 0
KCH1 200002Z 01007KT 09/M03 A3027 RMK A01 T00901028  RH  044%=      5-min Rain = 0
KCH1 200003Z 00006KT 09/M03 A3027 RMK A01 T00891028  RH  044%=      5-min Rain = 0
KCH1 200004Z 01007KT 09/M03 A3027 RMK A01 T00891028  RH  044%=      5-min Rain = 0
KCH1 200005Z 01005KT 09/M03 A3027 RMK A01 T00881028  RH  044%=      5-min Rain = 0
KCH1 200006Z 02005KT 09/M03 A3027 RMK A01 T00881028  RH  044%=      5-min Rain = 0
KCH1 200007Z 02004KT 09/M03 A3027 RMK A01 T00871028  RH  044%=      5-min Rain = 0
KCH1 200008Z 02005KT 09/M03 A3027 RMK A01 T00861028  RH  045%=      5-min Rain = 0
KCH1 200009Z 02005KT 09/M03 A3027 RMK A01 T00851028  RH  045%=      5-min Rain = 0
KCH1 200010Z 03005KT 08/M03 A3027 RMK A01 T00841028  RH  045%=      5-min Rain = 0
KCH1 200011Z 03004KT 08/M03 A3027 RMK A01 T00841028  RH  045%=      5-min Rain = 0
KCH1 200012Z 03005KT 08/M03 A3027 RMK A01 T00841028  RH  045%=      5-min Rain = 0
KCH1 200013Z 04004KT 08/M03 A3027 RMK A01 T00831028  RH  045%=      5-min Rain = 0
KCH1 200014Z 03004KT 08/M03 A3027 RMK A01 T00821028  RH  046%=      5-min Rain = 0
KCH1 200015Z 02004KT 08/M03 A3027 RMK A01 T00821028  RH  046%=      5-min Rain = 0
KCH1 200016Z 03004KT 08/M03 A3027 RMK A01 T00811027  RH  046%=      5-min Rain = 0
KCH1 200017Z 03004KT 08/M03 A3027 RMK A01 T00801028  RH  046%=      5-min Rain = 0
KCH1 200018Z 03005KT 08/M03 A3027 RMK A01 T00801027  RH  047%=      5-min Rain = 0
KCH1 200019Z 04004KT 08/M03 A3027 RMK A01 T00791027  RH  047%=      5-min Rain = 0
KCH1 200020Z 04005KT 08/M03 A3027 RMK A01 T00791027  RH  047%=      5-min Rain = 0
KCH1 200021Z 04005KT 08/M03 A3027 RMK A01 T00781028  RH  047%=      5-min Rain = 0
KCH1 200022Z 03005KT 08/M03 A3027 RMK A01 T00771028  RH  047%=      5-min Rain = 0
KCH1 200023Z 04005KT 08/M03 A3027 RMK A01 T00761027  RH  048%=      5-min Rain = 0
KCH1 200024Z 03005KT 08/M03 A3027 RMK A01 T00761027  RH  048%=      5-min Rain = 0
KCH1 200025Z 03004KT 08/M03 A3027 RMK A01 T00751027  RH  049%=      5-min Rain = 0
KCH1 200026Z 02005KT 08/M03 A3027 RMK A01 T00751027  RH  048%=      5-min Rain = 0
KCH1 200027Z 02005KT 08/M03 A3027 RMK A01 T00751027  RH  049%=      5-min Rain = 0
KCH1 200028Z 02005KT 07/M03 A3027 RMK A01 T00741027  RH  049%=      5-min Rain = 0
KCH1 200029Z 03005KT 07/M03 A3027 RMK A01 T00741027  RH  049%=      5-min Rain = 0
KCH1 200030Z 02005KT 07/M03 A3027 RMK A01 T00741027  RH  049%=      5-min Rain = 0
KCH1 200031Z 02006KT 07/M03 A3027 RMK A01 T00741027  RH  049%=      5-min Rain = 0
KCH1 200032Z 02006KT 07/M03 A3027 RMK A01 T00741026  RH  049%=      5-min Rain = 0
KCH1 200033Z 03006KT 07/M03 A3027 RMK A01 T00741026  RH  049%=      5-min Rain = 0
KCH1 200034Z 02006KT 07/M03 A3027 RMK A01 T00731027  RH  049%=      5-min Rain = 0
KCH1 200035Z 02006KT 07/M03 A3027 RMK A01 T00731026  RH  049%=      5-min Rain = 0
KCH1 200036Z 02006KT 07/M03 A3027 RMK A01 T00721027  RH  049%=      5-min Rain = 0
KCH1 200037Z 01007KT 07/M03 A3027 RMK A01 T00721027  RH  049%=      5-min Rain = 0
KCH1 200038Z 01007KT 07/M03 A3027 RMK A01 T00721027  RH  050%=      5-min Rain = 0
KCH1 200039Z 01007KT 07/M03 A3027 RMK A01 T00721027  RH  050%=      5-min Rain = 0
KCH1 200040Z 01007KT 07/M03 A3027 RMK A01 T00721027  RH  049%=      5-min Rain = 0
KCH1 200041Z 01008KT 07/M03 A3027 RMK A01 T00721027  RH  049%=      5-min Rain = 0
KCH1 200042Z 01008KT 07/M03 A3027 RMK A01 T00721027  RH  049%=      5-min Rain = 0
KCH1 200043Z 01008KT 07/M03 A3027 RMK A01 T00721027  RH  049%=      5-min Rain = 0
KCH1 200044Z 01008KT 07/M03 A3027 RMK A01 T00721027  RH  050%=      5-min Rain = 0
KCH1 200045Z 01008KT 07/M03 A3027 RMK A01 T00711026  RH  050%=      5-min Rain = 0
KCH1 200046Z 01007KT 07/M03 A3027 RMK A01 T00711027  RH  050%=      5-min Rain = 0
KCH1 200047Z 01008KT 07/M03 A3027 RMK A01 T00711027  RH  050%=      5-min Rain = 0
KCH1 200048Z 01007KT 07/M03 A3027 RMK A01 T00711026  RH  050%=      5-min Rain = 0
KCH1 200049Z 01008KT 07/M03 A3027 RMK A01 T00701027  RH  050%=      5-min Rain = 0
KCH1 200050Z 01008KT 07/M03 A3027 RMK A01 T00701027  RH  050%=      5-min Rain = 0
KCH1 200051Z 01008KT 07/M03 A3027 RMK A01 T00691027  RH  051%=      5-min Rain = 0
KCH1 200052Z 01007KT 07/M03 A3027 RMK A01 T00691026  RH  051%=      5-min Rain = 0
KCH1 200053Z 01007KT 07/M03 A3027 RMK A01 T00691026  RH  051%=      5-min Rain = 0
KCH1 200054Z 02007KT 07/M03 A3027 RMK A01 T00681026  RH  051%=      5-min Rain = 0
KCH1 200055Z 02006KT 07/M03 A3027 RMK A01 T00671026  RH  051%=      5-min Rain = 0
KCH1 200056Z 02006KT 07/M03 A3027 RMK A01 T00661026  RH  052%=      5-min Rain = 0
KCH1 200057Z 02006KT 07/M03 A3027 RMK A01 T00651026  RH  052%=      5-min Rain = 0
KCH1 200058Z 02006KT 06/M03 A3027 RMK A01 T00641026  RH  052%=      5-min Rain = 0
KCH1 200059Z 02006KT 06/M03 A3027 RMK A01 T00631026  RH  053%=      5-min Rain = 0
KCH1 200100Z 02006KT 06/M03 A3027 RMK A01 T00621026  RH  053%=      5-min Rain = 0
KCH1 200101Z 02005KT 06/M03 A3028 RMK A01 T00621026  RH  053%=      5-min Rain = 0
KCH1 200102Z 02005KT 06/M03 A3028 RMK A01 T00611026  RH  054%=      5-min Rain = 0
KCH1 200103Z 02005KT 06/M03 A3028 RMK A01 T00611026  RH  054%=      5-min Rain = 0
KCH1 200104Z 02005KT 06/M03 A3028 RMK A01 T00601026  RH  054%=      5-min Rain = 0
KCH1 200105Z 02004KT 06/M03 A3028 RMK A01 T00601027  RH  054%=      5-min Rain = 0
KCH1 200106Z 02004KT 06/M03 A3028 RMK A01 T00601026  RH  054%=      5-min Rain = 0
KCH1 200107Z 02004KT 06/M03 A3028 RMK A01 T00601027  RH  054%=      5-min Rain = 0
KCH1 200108Z 02004KT 06/M03 A3028 RMK A01 T00601027  RH  053%=      5-min Rain = 0
KCH1 200109Z 03004KT 06/M03 A3028 RMK A01 T00601027  RH  053%=      5-min Rain = 0
KCH1 200110Z 03004KT 06/M03 A3028 RMK A01 T00601027  RH  054%=      5-min Rain = 0
KCH1 200111Z 03004KT 06/M03 A3028 RMK A01 T00601027  RH  054%=      5-min Rain = 0
KCH1 200112Z 03005KT 06/M03 A3028 RMK A01 T00601027  RH  054%=      5-min Rain = 0
KCH1 200113Z 04005KT 06/M03 A3028 RMK A01 T00601027  RH  054%=      5-min Rain = 0
KCH1 200114Z 04005KT 06/M03 A3028 RMK A01 T00601027  RH  054%=      5-min Rain = 0
KCH1 200115Z 04005KT 06/M03 A3028 RMK A01 T00601027  RH  054%=      5-min Rain = 0
KCH1 200116Z 04005KT 06/M03 A3028 RMK A01 T00591027  RH  054%=      5-min Rain = 0
KCH1 200117Z 04005KT 06/M03 A3028 RMK A01 T00591028  RH  054%=      5-min Rain = 0
KCH1 200118Z 04004KT 06/M03 A3028 RMK A01 T00581028  RH  054%=      5-min Rain = 0
KCH1 200119Z 04004KT 06/M03 A3028 RMK A01 T00581028  RH  054%=      5-min Rain = 0
KCH1 200120Z 04004KT 06/M03 A3028 RMK A01 T00581027  RH  054%=      5-min Rain = 0
KCH1 200121Z 04004KT 06/M03 A3028 RMK A01 T00571028  RH  054%=      5-min Rain = 0
KCH1 200122Z 04003KT 06/M03 A3028 RMK A01 T00571029  RH  054%=      5-min Rain = 0
KCH1 200123Z 05002KT 06/M03 A3028 RMK A01 T00571028  RH  054%=      5-min Rain = 0
KCH1 200124Z 06002KT 06/M03 A3028 RMK A01 T00571029  RH  054%=      5-min Rain = 0
KCH1 200125Z 05002KT 06/M03 A3028 RMK A01 T00571029  RH  054%=      5-min Rain = 0
KCH1 200126Z 04002KT 06/M03 A3028 RMK A01 T00571029  RH  054%=      5-min Rain = 0
KCH1 200127Z 03003KT 06/M03 A3028 RMK A01 T00571029  RH  054%=      5-min Rain = 0
KCH1 200128Z 03004KT 06/M03 A3028 RMK A01 T00571029  RH  054%=      5-min Rain = 0
KCH1 200129Z 03004KT 06/M03 A3028 RMK A01 T00571029  RH  054%=      5-min Rain = 0
KCH1 200130Z 04004KT 06/M03 A3028 RMK A01 T00571028  RH  054%=      5-min Rain = 0
KCH1 200131Z 03004KT 06/M03 A3028 RMK A01 T00561028  RH  055%=      5-min Rain = 0
KCH1 200132Z 03005KT 06/M03 A3028 RMK A01 T00551027  RH  055%=      5-min Rain = 0
KCH1 200133Z 03005KT 05/M03 A3028 RMK A01 T00541028  RH  056%=      5-min Rain = 0
KCH1 200134Z 03005KT 05/M03 A3028 RMK A01 T00521028  RH  056%=      5-min Rain = 0
KCH1 200135Z 03006KT 05/M03 A3028 RMK A01 T00511028  RH  057%=      5-min Rain = 0
KCH1 200136Z 03006KT 05/M03 A3028 RMK A01 T00501028  RH  057%=      5-min Rain = 0
KCH1 200137Z 02006KT 05/M03 A3028 RMK A01 T00491028  RH  058%=      5-min Rain = 0
KCH1 200138Z 02007KT 05/M03 A3028 RMK A01 T00481028  RH  058%=      5-min Rain = 0
KCH1 200139Z 02007KT 05/M03 A3028 RMK A01 T00481028  RH  058%=      5-min Rain = 0
KCH1 200140Z 02007KT 05/M03 A3028 RMK A01 T00481028  RH  058%=      5-min Rain = 0
KCH1 200141Z 01007KT 05/M03 A3028 RMK A01 T00481027  RH  058%=      5-min Rain = 0
KCH1 200142Z 02007KT 05/M03 A3028 RMK A01 T00481028  RH  058%=      5-min Rain = 0
KCH1 200143Z 01008KT 05/M03 A3028 RMK A01 T00481028  RH  058%=      5-min Rain = 0
KCH1 200144Z 02007KT 05/M03 A3028 RMK A01 T00481028  RH  058%=      5-min Rain = 0
KCH1 200145Z 02007KT 05/M03 A3028 RMK A01 T00481028  RH  058%=      5-min Rain = 0
KCH1 200146Z 02007KT 05/M03 A3028 RMK A01 T00491028  RH  058%=      5-min Rain = 0
KCH1 200147Z 01007KT 05/M03 A3028 RMK A01 T00491027  RH  058%=      5-min Rain = 0
KCH1 200148Z 01007KT 05/M03 A3029 RMK A01 T00481027  RH  058%=      5-min Rain = 0
KCH1 200149Z 02007KT 05/M03 A3029 RMK A01 T00471027  RH  058%=      5-min Rain = 0
KCH1 200150Z 02007KT 05/M03 A3029 RMK A01 T00471027  RH  059%=      5-min Rain = 0
KCH1 200151Z 02007KT 05/M03 A3029 RMK A01 T00471027  RH  058%=      5-min Rain = 0
KCH1 200152Z 02007KT 05/M03 A3029 RMK A01 T00471027  RH  059%=      5-min Rain = 0
KCH1 200153Z 02007KT 05/M03 A3029 RMK A01 T00461027  RH  059%=      5-min Rain = 0
KCH1 200154Z 02007KT 05/M03 A3029 RMK A01 T00451027  RH  059%=      5-min Rain = 0
KCH1 200155Z 02007KT 05/M03 A3029 RMK A01 T00451027  RH  060%=      5-min Rain = 0
KCH1 200156Z 02007KT 04/M03 A3029 RMK A01 T00441027  RH  060%=      5-min Rain = 0
KCH1 200157Z 02006KT 04/M03 A3029 RMK A01 T00431027  RH  060%=      5-min Rain = 0
KCH1 200158Z 02007KT 04/M03 A3029 RMK A01 T00431027  RH  061%=      5-min Rain = 0
KCH1 200159Z 01006KT 04/M03 A3029 RMK A01 T00421027  RH  061%=      5-min Rain = 0
KCH1 200200Z 02006KT 04/M03 A3029 RMK A01 T00421027  RH  061%=      5-min Rain = 0
KCH1 200201Z 01006KT 04/M03 A3029 RMK A01 T00421027  RH  061%=      5-min Rain = 0
KCH1 200202Z 01006KT 04/M03 A303 RMK A01 T00421028  RH  061%=      5-min Rain = 0
KCH1 200203Z 00006KT 04/M03 A303 RMK A01 T00431027  RH  060%=      5-min Rain = 0
KCH1 200204Z 01005KT 04/M03 A303 RMK A01 T00431028  RH  060%=      5-min Rain = 0
KCH1 200205Z 01005KT 04/M03 A303 RMK A01 T00431028  RH  060%=      5-min Rain = 0
KCH1 200206Z 00005KT 04/M03 A303 RMK A01 T00441028  RH  059%=      5-min Rain = 0
KCH1 200207Z 01005KT 04/M03 A303 RMK A01 T00441028  RH  059%=      5-min Rain = 0
KCH1 200208Z 01005KT 05/M03 A303 RMK A01 T00451029  RH  059%=      5-min Rain = 0
KCH1 200209Z 00005KT 05/M03 A303 RMK A01 T00451029  RH  059%=      5-min Rain = 0
KCH1 200210Z 00004KT 05/M03 A303 RMK A01 T00451029  RH  059%=      5-min Rain = 0
KCH1 200211Z 36004KT 05/M03 A303 RMK A01 T00461029  RH  059%=      5-min Rain = 0
KCH1 200212Z 35004KT 05/M03 A303 RMK A01 T00461029  RH  059%=      5-min Rain = 0
KCH1 200213Z 35004KT 05/M03 A303 RMK A01 T00451029  RH  059%=      5-min Rain = 0
KCH1 200214Z 35004KT 05/M03 A3031 RMK A01 T00451028  RH  059%=      5-min Rain = 0
KCH1 200215Z 35004KT 05/M03 A3031 RMK A01 T00451029  RH  059%=      5-min Rain = 0
KCH1 200216Z 35004KT 05/M03 A3031 RMK A01 T00451029  RH  058%=      5-min Rain = 0
KCH1 200217Z 35004KT 05/M03 A3031 RMK A01 T00451029  RH  058%=      5-min Rain = 0
KCH1 200218Z 34004KT 05/M03 A3031 RMK A01 T00461029  RH  058%=      5-min Rain = 0
KCH1 200219Z 33003KT 05/M03 A3031 RMK A01 T00461029  RH  058%=      5-min Rain = 0
KCH1 200220Z 32003KT 05/M03 A3031 RMK A01 T00461028  RH  059%=      5-min Rain = 0
KCH1 200221Z 31003KT 05/M03 A3031 RMK A01 T00461028  RH  059%=      5-min Rain = 0
KCH1 200222Z 32003KT 05/M03 A3031 RMK A01 T00451027  RH  059%=      5-min Rain = 0
KCH1 200223Z 30002KT 04/M03 A3031 RMK A01 T00441027  RH  060%=      5-min Rain = 0
KCH1 200224Z 30002KT 04/M03 A3031 RMK A01 T00441026  RH  060%=      5-min Rain = 0
KCH1 200225Z 30003KT 04/M03 A3032 RMK A01 T00431026  RH  061%=      5-min Rain = 0
KCH1 200226Z 31004KT 04/M03 A3031 RMK A01 T00421025  RH  062%=      5-min Rain = 0
KCH1 200227Z 31004KT 04/M03 A3032 RMK A01 T00421026  RH  062%=      5-min Rain = 0
KCH1 200228Z 31004KT 04/M03 A3032 RMK A01 T00421026  RH  061%=      5-min Rain = 0
KCH1 200229Z 31004KT 04/M03 A3032 RMK A01 T00431026  RH  061%=      5-min Rain = 0
KCH1 200230Z 31004KT 04/M03 A3032 RMK A01 T00431026  RH  060%=      5-min Rain = 0
KCH1 200231Z 31004KT 04/M03 A3032 RMK A01 T00441025  RH  061%=      5-min Rain = 0
KCH1 200232Z 31004KT 04/M03 A3032 RMK A01 T00441025  RH  061%=      5-min Rain = 0
KCH1 200233Z 31004KT 04/M02 A3032 RMK A01 T00441024  RH  061%=      5-min Rain = 0
KCH1 200234Z 32004KT 04/M02 A3032 RMK A01 T00431024  RH  062%=      5-min Rain = 0
KCH1 200235Z 33004KT 04/M02 A3032 RMK A01 T00431023  RH  062%=      5-min Rain = 0
KCH1 200236Z 33005KT 04/M02 A3032 RMK A01 T00421023  RH  062%=      5-min Rain = 0
KCH1 200237Z 33005KT 04/M02 A3032 RMK A01 T00421024  RH  062%=      5-min Rain = 0
KCH1 200238Z 34005KT 04/M02 A3032 RMK A01 T00421023  RH  062%=      5-min Rain = 0
KCH1 200239Z 34005KT 04/M02 A3032 RMK A01 T00411023  RH  063%=      5-min Rain = 0
KCH1 200240Z 33004KT 04/M02 A3032 RMK A01 T00411024  RH  063%=      5-min Rain = 0
KCH1 200241Z 33003KT 04/M02 A3032 RMK A01 T00401024  RH  063%=      5-min Rain = 0
KCH1 200242Z 32003KT 04/M03 A3032 RMK A01 T00381025  RH  063%=      5-min Rain = 0
KCH1 200243Z 32004KT 04/M03 A3031 RMK A01 T00371025  RH  064%=      5-min Rain = 0
KCH1 200244Z 31004KT 04/M02 A3031 RMK A01 T00361024  RH  065%=      5-min Rain = 0
KCH1 200245Z 31004KT 04/M02 A3031 RMK A01 T00361023  RH  065%=      5-min Rain = 0
KCH1 200246Z 31004KT 04/M02 A3031 RMK A01 T00361022  RH  066%=      5-min Rain = 0
KCH1 200247Z 31004KT 04/M02 A3031 RMK A01 T00371021  RH  066%=      5-min Rain = 0
KCH1 200248Z 29004KT 04/M02 A3031 RMK A01 T00371020  RH  066%=      5-min Rain = 0
KCH1 200249Z 30004KT 04/M02 A3031 RMK A01 T00371020  RH  066%=      5-min Rain = 0
KCH1 200250Z 30005KT 04/M02 A3031 RMK A01 T00371020  RH  066%=      5-min Rain = 0
KCH1 200251Z 29004KT 04/M02 A3031 RMK A01 T00371019  RH  067%=      5-min Rain = 0
KCH1 200252Z 28004KT 04/M02 A3031 RMK A01 T00361019  RH  067%=      5-min Rain = 0
KCH1 200253Z 28004KT 04/M02 A3031 RMK A01 T00361020  RH  067%=      5-min Rain = 0
KCH1 200254Z 28004KT 04/M02 A3031 RMK A01 T00361019  RH  068%=      5-min Rain = 0
KCH1 200255Z 29003KT 04/M02 A3031 RMK A01 T00351018  RH  068%=      5-min Rain = 0
KCH1 200256Z 29004KT 03/M02 A3031 RMK A01 T00331019  RH  069%=      5-min Rain = 0
KCH1 200257Z 29004KT 03/M02 A3031 RMK A01 T00321020  RH  069%=      5-min Rain = 0
KCH1 200258Z 29004KT 03/M02 A3031 RMK A01 T00311019  RH  069%=      5-min Rain = 0
KCH1 200259Z 31003KT 03/M02 A3031 RMK A01 T00311019  RH  070%=      5-min Rain = 0
KCH1 200300Z 31003KT 03/M02 A3031 RMK A01 T00311019  RH  070%=      5-min Rain = 0
KCH1 200301Z 31002KT 03/M02 A3031 RMK A01 T00311018  RH  070%=      5-min Rain = 0
KCH1 200302Z 31003KT 03/M02 A3031 RMK A01 T00331017  RH  070%=      5-min Rain = 0
KCH1 200303Z 31002KT 03/M02 A3031 RMK A01 T00341017  RH  070%=      5-min Rain = 0
KCH1 200304Z 30002KT 03/M02 A303 RMK A01 T00341017  RH  069%=      5-min Rain = 0
KCH1 200305Z 26001KT 03/M02 A303 RMK A01 T00341017  RH  069%=      5-min Rain = 0
KCH1 200306Z 33001KT 03/M02 A3031 RMK A01 T00331017  RH  070%=      5-min Rain = 0
KCH1 200307Z 29000KT 03/M02 A303 RMK A01 T00321017  RH  070%=      5-min Rain = 0
KCH1 200308Z 30000KT 03/M02 A303 RMK A01 T00321017  RH  070%=      5-min Rain = 0
KCH1 200309Z 31000KT 03/M02 A303 RMK A01 T00321017  RH  070%=      5-min Rain = 0
KCH1 200310Z 32000KT 03/M02 A303 RMK A01 T00321018  RH  070%=      5-min Rain = 0
KCH1 200311Z 29000KT 03/M02 A303 RMK A01 T00321017  RH  070%=      5-min Rain = 0
KCH1 200312Z 32001KT 03/M02 A303 RMK A01 T00331017  RH  070%=      5-min Rain = 0
KCH1 200313Z 30001KT 03/M02 A303 RMK A01 T00331017  RH  070%=      5-min Rain = 0
KCH1 200314Z 32001KT 03/M02 A303 RMK A01 T00321020  RH  068%=      5-min Rain = 0
KCH1 200315Z 33001KT 03/M02 A303 RMK A01 T00311020  RH  069%=      5-min Rain = 0
KCH1 200316Z 32002KT 03/M02 A303 RMK A01 T00311020  RH  069%=      5-min Rain = 0
KCH1 200317Z 33002KT 03/M02 A303 RMK A01 T00311018  RH  070%=      5-min Rain = 0
KCH1 200318Z 33002KT 03/M02 A303 RMK A01 T00311018  RH  070%=      5-min Rain = 0
KCH1 200319Z 32003KT 03/M02 A303 RMK A01 T00311019  RH  070%=      5-min Rain = 0
KCH1 200320Z 32003KT 03/M02 A303 RMK A01 T00301018  RH  071%=      5-min Rain = 0
KCH1 200321Z 33003KT 03/M02 A303 RMK A01 T00301016  RH  071%=      5-min Rain = 0
KCH1 200322Z 33003KT 03/M02 A303 RMK A01 T00301015  RH  072%=      5-min Rain = 0
KCH1 200323Z 33003KT 03/M01 A303 RMK A01 T00301013  RH  073%=      5-min Rain = 0
KCH1 200324Z 33003KT 03/M01 A3031 RMK A01 T00301013  RH  073%=      5-min Rain = 0
KCH1 200325Z 33002KT 03/M01 A3031 RMK A01 T00301013  RH  073%=      5-min Rain = 0
KCH1 200326Z 34002KT 03/M01 A3031 RMK A01 T00301013  RH  074%=      5-min Rain = 0
KCH1 200327Z 35002KT 03/M01 A3031 RMK A01 T00301013  RH  074%=      5-min Rain = 0
KCH1 200328Z 34002KT 03/M01 A3031 RMK A01 T00291013  RH  074%=      5-min Rain = 0
KCH1 200329Z 35002KT 03/M02 A3031 RMK A01 T00291015  RH  073%=      5-min Rain = 0
KCH1 200330Z 01002KT 03/M02 A3031 RMK A01 T00291017  RH  072%=      5-min Rain = 0
KCH1 200331Z 35002KT 03/M02 A3031 RMK A01 T00281021  RH  070%=      5-min Rain = 0
KCH1 200332Z 35003KT 03/M02 A3031 RMK A01 T00271022  RH  070%=      5-min Rain = 0
KCH1 200333Z 35003KT 03/M02 A3031 RMK A01 T00261024  RH  070%=      5-min Rain = 0
KCH1 200334Z 35003KT 02/M03 A3031 RMK A01 T00241025  RH  070%=      5-min Rain = 0
KCH1 200335Z 34003KT 02/M03 A3031 RMK A01 T00231025  RH  071%=      5-min Rain = 0
KCH1 200336Z 33004KT 02/M02 A3031 RMK A01 T00221024  RH  072%=      5-min Rain = 0
KCH1 200337Z 32004KT 02/M02 A3031 RMK A01 T00231020  RH  073%=      5-min Rain = 0
KCH1 200338Z 32004KT 02/M02 A3031 RMK A01 T00241017  RH  074%=      5-min Rain = 0
KCH1 200339Z 32004KT 03/M02 A3031 RMK A01 T00251015  RH  074%=      5-min Rain = 0
KCH1 200340Z 32004KT 03/M02 A3031 RMK A01 T00261015  RH  074%=      5-min Rain = 0
KCH1 200341Z 32004KT 03/M02 A3031 RMK A01 T00261015  RH  075%=      5-min Rain = 0
KCH1 200342Z 32005KT 03/M01 A3031 RMK A01 T00261014  RH  075%=      5-min Rain = 0
KCH1 200343Z 32005KT 03/M01 A3032 RMK A01 T00261014  RH  075%=      5-min Rain = 0
KCH1 200344Z 32005KT 03/M02 A3032 RMK A01 T00251015  RH  075%=      5-min Rain = 0
KCH1 200345Z 32005KT 03/M02 A3032 RMK A01 T00251016  RH  074%=      5-min Rain = 0
KCH1 200346Z 33005KT 02/M02 A3032 RMK A01 T00241017  RH  074%=      5-min Rain = 0
KCH1 200347Z 33005KT 02/M02 A3032 RMK A01 T00241018  RH  074%=      5-min Rain = 0
KCH1 200348Z 33005KT 02/M02 A3032 RMK A01 T00241018  RH  074%=      5-min Rain = 0
KCH1 200349Z 33004KT 02/M02 A3032 RMK A01 T00241018  RH  073%=      5-min Rain = 0
KCH1 200350Z 34004KT 03/M02 A3032 RMK A01 T00251019  RH  073%=      5-min Rain = 0
KCH1 200351Z 34004KT 03/M02 A3031 RMK A01 T00251019  RH  073%=      5-min Rain = 0
KCH1 200352Z 34004KT 03/M02 A3031 RMK A01 T00251019  RH  073%=      5-min Rain = 0
KCH1 200353Z 34004KT 03/M02 A3031 RMK A01 T00251018  RH  073%=      5-min Rain = 0
KCH1 200354Z 34004KT 03/M02 A3031 RMK A01 T00251019  RH  073%=      5-min Rain = 0
KCH1 200355Z 34004KT 02/M02 A3031 RMK A01 T00241020  RH  073%=      5-min Rain = 0
KCH1 200356Z 34004KT 02/M02 A3031 RMK A01 T00241020  RH  073%=      5-min Rain = 0
KCH1 200357Z 33004KT 02/M02 A3032 RMK A01 T00241020  RH  073%=      5-min Rain = 0
KCH1 200358Z 33005KT 02/M02 A3032 RMK A01 T00231020  RH  073%=      5-min Rain = 0
KCH1 200359Z 33005KT 02/M02 A3032 RMK A01 T00221020  RH  074%=      5-min Rain = 0
KCH1 200400Z 32005KT 02/M02 A3032 RMK A01 T00221020  RH  074%=      5-min Rain = 0
KCH1 200401Z 32005KT 02/M02 A3032 RMK A01 T00221020  RH  074%=      5-min Rain = 0
KCH1 200402Z 32005KT 02/M02 A3032 RMK A01 T00221020  RH  073%=      5-min Rain = 0
KCH1 200403Z 32005KT 02/M02 A3032 RMK A01 T00231021  RH  073%=      5-min Rain = 0
KCH1 200404Z 33005KT 02/M02 A3032 RMK A01 T00221021  RH  073%=      5-min Rain = 0
KCH1 200405Z 33005KT 02/M02 A3032 RMK A01 T00221021  RH  073%=      5-min Rain = 0
KCH1 200406Z 34004KT 02/M02 A3032 RMK A01 T00221022  RH  073%=      5-min Rain = 0
KCH1 200407Z 35004KT 02/M02 A3032 RMK A01 T00221022  RH  073%=      5-min Rain = 0
KCH1 200408Z 35004KT 02/M02 A3032 RMK A01 T00221022  RH  073%=      5-min Rain = 0
KCH1 200409Z 35004KT 02/M02 A3032 RMK A01 T00221023  RH  073%=      5-min Rain = 0
KCH1 200410Z 36005KT 02/M02 A3032 RMK A01 T00191024  RH  073%=      5-min Rain = 0
KCH1 200411Z 00004KT 02/M03 A3032 RMK A01 T00161025  RH  074%=      5-min Rain = 0
KCH1 200412Z 36004KT 01/M03 A3032 RMK A01 T00141025  RH  075%=      5-min Rain = 0
KCH1 200413Z 35004KT 01/M03 A3032 RMK A01 T00131025  RH  076%=      5-min Rain = 0
KCH1 200414Z 35004KT 01/M03 A3032 RMK A01 T00111025  RH  077%=      5-min Rain = 0
KCH1 200415Z 34003KT 01/M02 A3032 RMK A01 T00121024  RH  077%=      5-min Rain = 0
KCH1 200416Z 34003KT 01/M02 A3032 RMK A01 T00131023  RH  077%=      5-min Rain = 0
KCH1 200417Z 33003KT 02/M02 A3032 RMK A01 T00151023  RH  076%=      5-min Rain = 0
KCH1 200418Z 32003KT 02/M02 A3032 RMK A01 T00161023  RH  075%=      5-min Rain = 0
KCH1 200419Z 32003KT 02/M02 A3032 RMK A01 T00161023  RH  075%=      5-min Rain = 0
KCH1 200420Z 31003KT 02/M02 A3032 RMK A01 T00161022  RH  076%=      5-min Rain = 0
KCH1 200421Z 32003KT 02/M02 A3032 RMK A01 T00171021  RH  076%=      5-min Rain = 0
KCH1 200422Z 33003KT 02/M02 A3032 RMK A01 T00171021  RH  076%=      5-min Rain = 0
KCH1 200423Z 33003KT 02/M02 A3032 RMK A01 T00161021  RH  076%=      5-min Rain = 0
KCH1 200424Z 35003KT 02/M02 A3032 RMK A01 T00161020  RH  077%=      5-min Rain = 0
KCH1 200425Z 01003KT 02/M02 A3032 RMK A01 T00181019  RH  076%=      5-min Rain = 0
KCH1 200426Z 01004KT 02/M02 A3032 RMK A01 T00201022  RH  074%=      5-min Rain = 0
KCH1 200427Z 01003KT 02/M02 A3033 RMK A01 T00221022  RH  073%=      5-min Rain = 0
KCH1 200428Z 01004KT 02/M02 A3033 RMK A01 T00221022  RH  073%=      5-min Rain = 0
KCH1 200429Z 02005KT 02/M02 A3033 RMK A01 T00221023  RH  072%=      5-min Rain = 0
KCH1 200430Z 03004KT 02/M02 A3033 RMK A01 T00221024  RH  072%=      5-min Rain = 0
KCH1 200431Z 03006KT 02/M03 A3033 RMK A01 T00211026  RH  071%=      5-min Rain = 0
KCH1 200432Z 04006KT 01/M03 A3032 RMK A01 T00141031  RH  072%=      5-min Rain = 0
KCH1 200433Z 03006KT 00/M04 A3032 RMK A01 T00041035  RH  075%=      5-min Rain = 0
KCH1 200434Z 04006KT M00/M04 A3032 RMK A01 T10011035  RH  078%=      5-min Rain = 0
KCH1 200435Z 04006KT M00/M03 A3032 RMK A01 T10031033  RH  080%=      5-min Rain = 0
KCH1 200436Z 04006KT M00/M03 A3032 RMK A01 T10031032  RH  081%=      5-min Rain = 0
KCH1 200437Z 03005KT M00/M03 A3033 RMK A01 T10041031  RH  082%=      5-min Rain = 0
KCH1 200438Z 04006KT M00/M03 A3033 RMK A01 T10031030  RH  082%=      5-min Rain = 0
KCH1 200439Z 05006KT M00/M03 A3033 RMK A01 T10031030  RH  082%=      5-min Rain = 0
KCH1 200440Z 05005KT M00/M03 A3033 RMK A01 T10011030  RH  081%=      5-min Rain = 0
KCH1 200441Z 06005KT M00/M03 A3033 RMK A01 T10021031  RH  081%=      5-min Rain = 0
KCH1 200442Z 06005KT M00/M03 A3033 RMK A01 T10041031  RH  082%=      5-min Rain = 0
KCH1 200443Z 06005KT M01/M03 A3033 RMK A01 T10051031  RH  083%=      5-min Rain = 0
KCH1 200444Z 06005KT M01/M03 A3033 RMK A01 T10061030  RH  084%=      5-min Rain = 0
KCH1 200445Z 07004KT M01/M03 A3032 RMK A01 T10051030  RH  083%=      5-min Rain = 0
KCH1 200446Z 07005KT M00/M03 A3032 RMK A01 T10031029  RH  082%=      5-min Rain = 0
KCH1 200447Z 07005KT M00/M03 A3032 RMK A01 T10021030  RH  081%=      5-min Rain = 0
KCH1 200448Z 07006KT 00/03 A3032 RMK A01 T00000-31  RH  080%=      5-min Rain = 0
KCH1 200449Z 07006KT 00/M03 A3032 RMK A01 T00021031  RH  079%=      5-min Rain = 0
KCH1 200450Z 08006KT 00/M03 A3032 RMK A01 T00031031  RH  078%=      5-min Rain = 0
KCH1 200451Z 07006KT 00/M03 A3032 RMK A01 T00041031  RH  078%=      5-min Rain = 0
KCH1 200452Z 07006KT 00/M03 A3032 RMK A01 T00031031  RH  077%=      5-min Rain = 0
KCH1 200453Z 07006KT 00/M03 A3032 RMK A01 T00041031  RH  078%=      5-min Rain = 0
KCH1 200454Z 07005KT 00/M03 A3032 RMK A01 T00041031  RH  077%=      5-min Rain = 0
KCH1 200455Z 06005KT 00/M03 A3033 RMK A01 T00041031  RH  077%=      5-min Rain = 0
KCH1 200456Z 06005KT 01/M03 A3033 RMK A01 T00051031  RH  077%=      5-min Rain = 0
KCH1 200457Z 06005KT 01/M03 A3033 RMK A01 T00061031  RH  076%=      5-min Rain = 0
KCH1 200458Z 06005KT 01/M03 A3033 RMK A01 T00061031  RH  076%=      5-min Rain = 0
KCH1 200459Z 06005KT 01/M03 A3033 RMK A01 T00071031  RH  076%=      5-min Rain = 0
KCH1 200500Z 06005KT 01/M03 A3033 RMK A01 T00071032  RH  076%=      5-min Rain = 0
KCH1 200501Z 06004KT 01/M03 A3033 RMK A01 T00071032  RH  076%=      5-min Rain = 0
KCH1 200502Z 05004KT 01/M03 A3033 RMK A01 T00071032  RH  076%=      5-min Rain = 0
KCH1 200503Z 05003KT 01/M03 A3033 RMK A01 T00071032  RH  076%=      5-min Rain = 0
KCH1 200504Z 05003KT 01/M03 A3034 RMK A01 T00061032  RH  076%=      5-min Rain = 0
KCH1 200505Z 05003KT 01/M03 A3034 RMK A01 T00061032  RH  076%=      5-min Rain = 0
KCH1 200506Z 06002KT 01/M03 A3034 RMK A01 T00051032  RH  076%=      5-min Rain = 0
KCH1 200507Z 04000KT 01/M03 A3034 RMK A01 T00051032  RH  076%=      5-min Rain = 0
KCH1 200508Z 25000KT 01/M03 A3033 RMK A01 T00051031  RH  077%=      5-min Rain = 0
KCH1 200509Z 24002KT 00/M03 A3033 RMK A01 T00041031  RH  077%=      5-min Rain = 0
KCH1 200510Z 22001KT 00/M03 A3033 RMK A01 T00041030  RH  078%=      5-min Rain = 0
KCH1 200511Z 20001KT 00/M03 A3033 RMK A01 T00041030  RH  078%=      5-min Rain = 0
KCH1 200512Z 20002KT 00/M03 A3033 RMK A01 T00041030  RH  078%=      5-min Rain = 0
KCH1 200513Z 21003KT 00/M03 A3033 RMK A01 T00041031  RH  078%=      5-min Rain = 0
KCH1 200514Z 20003KT 00/M03 A3033 RMK A01 T00041031  RH  078%=      5-min Rain = 0
KCH1 200515Z 20004KT 00/M03 A3033 RMK A01 T00041030  RH  078%=      5-min Rain = 0
KCH1 200516Z 20005KT 00/M03 A3033 RMK A01 T00041030  RH  078%=      5-min Rain = 0
KCH1 200517Z 20005KT 00/M03 A3033 RMK A01 T00031030  RH  079%=      5-min Rain = 0
KCH1 200518Z 20005KT 00/M03 A3033 RMK A01 T00031029  RH  079%=      5-min Rain = 0
KCH1 200519Z 19005KT 00/M03 A3033 RMK A01 T00021029  RH  079%=      5-min Rain = 0
KCH1 200520Z 18005KT 00/M03 A3033 RMK A01 T00021029  RH  080%=      5-min Rain = 0
KCH1 200521Z 18005KT 00/M03 A3033 RMK A01 T00011029  RH  080%=      5-min Rain = 0
KCH1 200522Z 18004KT 00/M03 A3033 RMK A01 T00011029  RH  080%=      5-min Rain = 0
KCH1 200523Z 19004KT 00/03 A3034 RMK A01 T00-00-29  RH  081%=      5-min Rain = 0
KCH1 200524Z 19003KT 00/03 A3034 RMK A01 T00-00-29  RH  081%=      5-min Rain = 0
KCH1 200525Z 17002KT 00/03 A3034 RMK A01 T00-00-29  RH  081%=      5-min Rain = 0
KCH1 200526Z 15002KT 00/03 A3034 RMK A01 T00-00-29  RH  081%=      5-min Rain = 0
KCH1 200527Z 13002KT 00/M03 A3033 RMK A01 T00011030  RH  080%=      5-min Rain = 0
KCH1 200528Z 14003KT 00/M03 A3033 RMK A01 T00031031  RH  078%=      5-min Rain = 0
KCH1 200529Z 15002KT 00/M03 A3034 RMK A01 T00031031  RH  078%=      5-min Rain = 0
KCH1 200530Z 14003KT 00/M03 A3034 RMK A01 T00031031  RH  078%=      5-min Rain = 0
KCH1 200531Z 14003KT 00/M03 A3034 RMK A01 T00031031  RH  078%=      5-min Rain = 0
KCH1 200532Z 14003KT 00/M03 A3034 RMK A01 T00041031  RH  078%=      5-min Rain = 0
KCH1 200533Z 13003KT 00/M03 A3034 RMK A01 T00041033  RH  077%=      5-min Rain = 0
KCH1 200534Z 13004KT 00/M04 A3034 RMK A01 T00041035  RH  076%=      5-min Rain = 0
KCH1 200535Z 13004KT 00/M04 A3034 RMK A01 T00041037  RH  074%=      5-min Rain = 0
KCH1 200536Z 12004KT 01/M04 A3034 RMK A01 T00061039  RH  072%=      5-min Rain = 0
KCH1 200537Z 12003KT 01/M04 A3034 RMK A01 T00081040  RH  071%=      5-min Rain = 0
KCH1 200538Z 13003KT 01/M04 A3034 RMK A01 T00081041  RH  070%=      5-min Rain = 0
KCH1 200539Z 12003KT 01/M04 A3034 RMK A01 T00091041  RH  069%=      5-min Rain = 0
KCH1 200540Z 12003KT 01/M04 A3034 RMK A01 T00091042  RH  069%=      5-min Rain = 0
KCH1 200541Z 12003KT 01/M04 A3034 RMK A01 T00091042  RH  068%=      5-min Rain = 0
KCH1 200542Z 11003KT 01/M04 A3034 RMK A01 T00101043  RH  068%=      5-min Rain = 0
KCH1 200543Z 11003KT 01/M04 A3034 RMK A01 T00111043  RH  067%=      5-min Rain = 0
KCH1 200544Z 10002KT 01/M04 A3034 RMK A01 T00111044  RH  067%=      5-min Rain = 0
KCH1 200545Z 10002KT 01/M04 A3034 RMK A01 T00111044  RH  067%=      5-min Rain = 0
KCH1 200546Z 14002KT 01/M04 A3034 RMK A01 T00111044  RH  066%=      5-min Rain = 0
KCH1 200547Z 14001KT 01/M04 A3034 RMK A01 T00111043  RH  067%=      5-min Rain = 0
KCH1 200548Z 14001KT 01/M04 A3034 RMK A01 T00091041  RH  069%=      5-min Rain = 0
KCH1 200549Z 15001KT 01/M04 A3034 RMK A01 T00071041  RH  070%=      5-min Rain = 0
KCH1 200550Z 17001KT 01/M04 A3034 RMK A01 T00061040  RH  072%=      5-min Rain = 0
KCH1 200551Z 19001KT 00/M04 A3034 RMK A01 T00041039  RH  073%=      5-min Rain = 0
KCH1 200552Z 20001KT 00/M04 A3034 RMK A01 T00041036  RH  074%=      5-min Rain = 0
KCH1 200553Z 19001KT 00/M04 A3034 RMK A01 T00031036  RH  075%=      5-min Rain = 0
KCH1 200554Z 17000KT 00/M04 A3034 RMK A01 T00041035  RH  075%=      5-min Rain = 0
KCH1 200555Z 00000KT 00/M04 A3035 RMK A01 T00031035  RH  076%=      5-min Rain = 0
KCH1 200556Z 00000KT 00/M04 A3035 RMK A01 T00031035  RH  076%=      5-min Rain = 0
KCH1 200557Z 00000KT 00/M03 A3035 RMK A01 T00021034  RH  076%=      5-min Rain = 0
KCH1 200558Z 00000KT 00/M03 A3035 RMK A01 T00021034  RH  077%=      5-min Rain = 0
KCH1 200559Z 17000KT 00/M03 A3034 RMK A01 T00021034  RH  077%=      5-min Rain = 0

Page generated in 0.1234 seconds.